<?xml version="1.0" encoding="UTF-8" standalone="no" ?>
<gpx xmlns="http://www.topografix.com/GPX/1/1" xmlns:xsi="http://www.w3.org/2001/XMLSchema-instance" xsi:schemaLocation="http://www.topografix.com/GPX/1/1 http://www.topografix.com/GPX/1/1/gpx.xsd" version="1.1" creator="VisuGPX - https://www.visugpx.com">
  <metadata>
    <name>2018-02-14 - La Schlucht, le Collet, Trois-Fours, le Hohneck</name>
    <desc><![CDATA[2018-02-14 - La Schlucht, le Collet, Trois-Fours, le Hohneck - Club vosgien Colmar - 17 participants - Guide : Denis Vouin]]></desc>
  </metadata>
  <trk>
    <name><![CDATA[14 févr. 2018]]></name>
    <cmt><![CDATA[9:30:16 AM]]></cmt>
    <desc><![CDATA[comment ...]]></desc>
    <trkseg>
      <trkpt lat="48.06415" lon="7.02265">
        <ele>1135</ele>
        <time>2018-02-14T08:30:14Z</time>
      </trkpt>
      <trkpt lat="48.06415" lon="7.02265">
        <ele>1135</ele>
        <time>2018-02-14T08:30:15Z</time>
      </trkpt>
      <trkpt lat="48.06419" lon="7.02265">
        <ele>1135</ele>
        <time>2018-02-14T08:30:25Z</time>
      </trkpt>
      <trkpt lat="48.06422" lon="7.02259">
        <ele>1134</ele>
        <time>2018-02-14T08:30:50Z</time>
      </trkpt>
      <trkpt lat="48.06418" lon="7.02257">
        <ele>1136</ele>
        <time>2018-02-14T08:33:55Z</time>
      </trkpt>
      <trkpt lat="48.06367" lon="7.02249">
        <ele>1146</ele>
        <time>2018-02-14T08:34:43Z</time>
      </trkpt>
      <trkpt lat="48.06363" lon="7.02247">
        <ele>1144</ele>
        <time>2018-02-14T08:35:55Z</time>
      </trkpt>
      <trkpt lat="48.06342" lon="7.02237">
        <ele>1136</ele>
        <time>2018-02-14T08:39:43Z</time>
      </trkpt>
      <trkpt lat="48.06338" lon="7.0223">
        <ele>1140</ele>
        <time>2018-02-14T08:39:44Z</time>
      </trkpt>
      <trkpt lat="48.0633" lon="7.02226">
        <ele>1143</ele>
        <time>2018-02-14T08:39:52Z</time>
      </trkpt>
      <trkpt lat="48.0632" lon="7.02213">
        <ele>1145</ele>
        <time>2018-02-14T08:40:08Z</time>
      </trkpt>
      <trkpt lat="48.06316" lon="7.0221">
        <ele>1145</ele>
        <time>2018-02-14T08:40:15Z</time>
      </trkpt>
      <trkpt lat="48.06313" lon="7.02205">
        <ele>1144</ele>
        <time>2018-02-14T08:40:20Z</time>
      </trkpt>
      <trkpt lat="48.06307" lon="7.02195">
        <ele>1142</ele>
        <time>2018-02-14T08:40:37Z</time>
      </trkpt>
      <trkpt lat="48.06303" lon="7.02183">
        <ele>1142</ele>
        <time>2018-02-14T08:40:51Z</time>
      </trkpt>
      <trkpt lat="48.06301" lon="7.02177">
        <ele>1142</ele>
        <time>2018-02-14T08:40:58Z</time>
      </trkpt>
      <trkpt lat="48.06293" lon="7.0216">
        <ele>1142</ele>
        <time>2018-02-14T08:41:19Z</time>
      </trkpt>
      <trkpt lat="48.06292" lon="7.02154">
        <ele>1142</ele>
        <time>2018-02-14T08:41:25Z</time>
      </trkpt>
      <trkpt lat="48.06288" lon="7.02151">
        <ele>1142</ele>
        <time>2018-02-14T08:41:38Z</time>
      </trkpt>
      <trkpt lat="48.06287" lon="7.02144">
        <ele>1142</ele>
        <time>2018-02-14T08:41:43Z</time>
      </trkpt>
      <trkpt lat="48.06288" lon="7.02138">
        <ele>1142</ele>
        <time>2018-02-14T08:41:48Z</time>
      </trkpt>
      <trkpt lat="48.06288" lon="7.02131">
        <ele>1142</ele>
        <time>2018-02-14T08:41:55Z</time>
      </trkpt>
      <trkpt lat="48.06286" lon="7.02125">
        <ele>1142</ele>
        <time>2018-02-14T08:41:59Z</time>
      </trkpt>
      <trkpt lat="48.06284" lon="7.02126">
        <ele>1142</ele>
        <time>2018-02-14T08:42:14Z</time>
      </trkpt>
      <trkpt lat="48.06286" lon="7.02133">
        <ele>1142</ele>
        <time>2018-02-14T08:42:18Z</time>
      </trkpt>
      <trkpt lat="48.06286" lon="7.0214">
        <ele>1141</ele>
        <time>2018-02-14T08:42:22Z</time>
      </trkpt>
      <trkpt lat="48.06285" lon="7.02147">
        <ele>1141</ele>
        <time>2018-02-14T08:42:26Z</time>
      </trkpt>
      <trkpt lat="48.06282" lon="7.02152">
        <ele>1141</ele>
        <time>2018-02-14T08:42:30Z</time>
      </trkpt>
      <trkpt lat="48.06273" lon="7.02153">
        <ele>1142</ele>
        <time>2018-02-14T08:42:40Z</time>
      </trkpt>
      <trkpt lat="48.06264" lon="7.02151">
        <ele>1143</ele>
        <time>2018-02-14T08:42:49Z</time>
      </trkpt>
      <trkpt lat="48.0626" lon="7.02149">
        <ele>1144</ele>
        <time>2018-02-14T08:42:53Z</time>
      </trkpt>
      <trkpt lat="48.06249" lon="7.02141">
        <ele>1144</ele>
        <time>2018-02-14T08:43:09Z</time>
      </trkpt>
      <trkpt lat="48.06227" lon="7.02133">
        <ele>1145</ele>
        <time>2018-02-14T08:43:33Z</time>
      </trkpt>
      <trkpt lat="48.06222" lon="7.02133">
        <ele>1146</ele>
        <time>2018-02-14T08:43:38Z</time>
      </trkpt>
      <trkpt lat="48.06198" lon="7.0212">
        <ele>1150</ele>
        <time>2018-02-14T08:44:08Z</time>
      </trkpt>
      <trkpt lat="48.06187" lon="7.02099">
        <ele>1149</ele>
        <time>2018-02-14T08:44:42Z</time>
      </trkpt>
      <trkpt lat="48.06191" lon="7.02066">
        <ele>1145</ele>
        <time>2018-02-14T08:45:03Z</time>
      </trkpt>
      <trkpt lat="48.0619" lon="7.02059">
        <ele>1146</ele>
        <time>2018-02-14T08:45:08Z</time>
      </trkpt>
      <trkpt lat="48.06185" lon="7.02048">
        <ele>1149</ele>
        <time>2018-02-14T08:45:18Z</time>
      </trkpt>
      <trkpt lat="48.06179" lon="7.02038">
        <ele>1150</ele>
        <time>2018-02-14T08:45:28Z</time>
      </trkpt>
      <trkpt lat="48.06177" lon="7.02032">
        <ele>1151</ele>
        <time>2018-02-14T08:45:33Z</time>
      </trkpt>
      <trkpt lat="48.06176" lon="7.02026">
        <ele>1153</ele>
        <time>2018-02-14T08:45:39Z</time>
      </trkpt>
      <trkpt lat="48.06175" lon="7.02023">
        <ele>1153</ele>
        <time>2018-02-14T08:46:02Z</time>
      </trkpt>
      <trkpt lat="48.0617" lon="7.02022">
        <ele>1155</ele>
        <time>2018-02-14T08:49:46Z</time>
      </trkpt>
      <trkpt lat="48.06173" lon="7.02017">
        <ele>1155</ele>
        <time>2018-02-14T08:50:35Z</time>
      </trkpt>
      <trkpt lat="48.06177" lon="7.02013">
        <ele>1154</ele>
        <time>2018-02-14T08:50:39Z</time>
      </trkpt>
      <trkpt lat="48.0618" lon="7.02008">
        <ele>1153</ele>
        <time>2018-02-14T08:50:45Z</time>
      </trkpt>
      <trkpt lat="48.06187" lon="7.02">
        <ele>1153</ele>
        <time>2018-02-14T08:50:55Z</time>
      </trkpt>
      <trkpt lat="48.06191" lon="7.01996">
        <ele>1152</ele>
        <time>2018-02-14T08:51:00Z</time>
      </trkpt>
      <trkpt lat="48.06194" lon="7.01991">
        <ele>1151</ele>
        <time>2018-02-14T08:51:06Z</time>
      </trkpt>
      <trkpt lat="48.06198" lon="7.01987">
        <ele>1151</ele>
        <time>2018-02-14T08:51:12Z</time>
      </trkpt>
      <trkpt lat="48.06212" lon="7.0197">
        <ele>1152</ele>
        <time>2018-02-14T08:51:35Z</time>
      </trkpt>
      <trkpt lat="48.06221" lon="7.01954">
        <ele>1150</ele>
        <time>2018-02-14T08:51:52Z</time>
      </trkpt>
      <trkpt lat="48.06224" lon="7.01949">
        <ele>1149</ele>
        <time>2018-02-14T08:51:58Z</time>
      </trkpt>
      <trkpt lat="48.06226" lon="7.01942">
        <ele>1147</ele>
        <time>2018-02-14T08:52:03Z</time>
      </trkpt>
      <trkpt lat="48.06232" lon="7.01933">
        <ele>1147</ele>
        <time>2018-02-14T08:52:14Z</time>
      </trkpt>
      <trkpt lat="48.06234" lon="7.01927">
        <ele>1147</ele>
        <time>2018-02-14T08:52:19Z</time>
      </trkpt>
      <trkpt lat="48.0624" lon="7.0191">
        <ele>1145</ele>
        <time>2018-02-14T08:52:37Z</time>
      </trkpt>
      <trkpt lat="48.06239" lon="7.01903">
        <ele>1145</ele>
        <time>2018-02-14T08:52:45Z</time>
      </trkpt>
      <trkpt lat="48.06236" lon="7.01858">
        <ele>1146</ele>
        <time>2018-02-14T08:53:18Z</time>
      </trkpt>
      <trkpt lat="48.06236" lon="7.01851">
        <ele>1146</ele>
        <time>2018-02-14T08:53:25Z</time>
      </trkpt>
      <trkpt lat="48.06236" lon="7.01838">
        <ele>1146</ele>
        <time>2018-02-14T08:53:36Z</time>
      </trkpt>
      <trkpt lat="48.06232" lon="7.01806">
        <ele>1149</ele>
        <time>2018-02-14T08:54:06Z</time>
      </trkpt>
      <trkpt lat="48.06228" lon="7.01775">
        <ele>1148</ele>
        <time>2018-02-14T08:54:47Z</time>
      </trkpt>
      <trkpt lat="48.06216" lon="7.01711">
        <ele>1150</ele>
        <time>2018-02-14T08:55:20Z</time>
      </trkpt>
      <trkpt lat="48.06215" lon="7.01705">
        <ele>1150</ele>
        <time>2018-02-14T08:55:27Z</time>
      </trkpt>
      <trkpt lat="48.06212" lon="7.017">
        <ele>1151</ele>
        <time>2018-02-14T08:55:51Z</time>
      </trkpt>
      <trkpt lat="48.06212" lon="7.01693">
        <ele>1150</ele>
        <time>2018-02-14T08:55:57Z</time>
      </trkpt>
      <trkpt lat="48.06213" lon="7.01687">
        <ele>1148</ele>
        <time>2018-02-14T08:56:02Z</time>
      </trkpt>
      <trkpt lat="48.06213" lon="7.01681">
        <ele>1150</ele>
        <time>2018-02-14T08:56:29Z</time>
      </trkpt>
      <trkpt lat="48.06212" lon="7.01675">
        <ele>1149</ele>
        <time>2018-02-14T08:56:45Z</time>
      </trkpt>
      <trkpt lat="48.0621" lon="7.01669">
        <ele>1149</ele>
        <time>2018-02-14T08:56:49Z</time>
      </trkpt>
      <trkpt lat="48.0621" lon="7.01663">
        <ele>1150</ele>
        <time>2018-02-14T08:57:00Z</time>
      </trkpt>
      <trkpt lat="48.06207" lon="7.01657">
        <ele>1150</ele>
        <time>2018-02-14T08:57:08Z</time>
      </trkpt>
      <trkpt lat="48.06203" lon="7.01647">
        <ele>1148</ele>
        <time>2018-02-14T08:57:18Z</time>
      </trkpt>
      <trkpt lat="48.06203" lon="7.0164">
        <ele>1149</ele>
        <time>2018-02-14T08:57:30Z</time>
      </trkpt>
      <trkpt lat="48.062" lon="7.01635">
        <ele>1151</ele>
        <time>2018-02-14T08:57:50Z</time>
      </trkpt>
      <trkpt lat="48.06197" lon="7.01629">
        <ele>1150</ele>
        <time>2018-02-14T08:57:55Z</time>
      </trkpt>
      <trkpt lat="48.06191" lon="7.01618">
        <ele>1150</ele>
        <time>2018-02-14T08:58:05Z</time>
      </trkpt>
      <trkpt lat="48.06188" lon="7.01612">
        <ele>1149</ele>
        <time>2018-02-14T08:58:10Z</time>
      </trkpt>
      <trkpt lat="48.06164" lon="7.01569">
        <ele>1152</ele>
        <time>2018-02-14T08:58:43Z</time>
      </trkpt>
      <trkpt lat="48.06152" lon="7.01549">
        <ele>1153</ele>
        <time>2018-02-14T08:58:58Z</time>
      </trkpt>
      <trkpt lat="48.06137" lon="7.01534">
        <ele>1150</ele>
        <time>2018-02-14T08:59:14Z</time>
      </trkpt>
      <trkpt lat="48.06105" lon="7.01505">
        <ele>1155</ele>
        <time>2018-02-14T08:59:46Z</time>
      </trkpt>
      <trkpt lat="48.06106" lon="7.01495">
        <ele>1160</ele>
        <time>2018-02-14T08:59:48Z</time>
      </trkpt>
      <trkpt lat="48.06104" lon="7.01489">
        <ele>1157</ele>
        <time>2018-02-14T08:59:53Z</time>
      </trkpt>
      <trkpt lat="48.06097" lon="7.01478">
        <ele>1157</ele>
        <time>2018-02-14T09:00:02Z</time>
      </trkpt>
      <trkpt lat="48.06093" lon="7.01475">
        <ele>1157</ele>
        <time>2018-02-14T09:00:06Z</time>
      </trkpt>
      <trkpt lat="48.06073" lon="7.01455">
        <ele>1157</ele>
        <time>2018-02-14T09:00:31Z</time>
      </trkpt>
      <trkpt lat="48.06055" lon="7.01441">
        <ele>1155</ele>
        <time>2018-02-14T09:00:50Z</time>
      </trkpt>
      <trkpt lat="48.06052" lon="7.01436">
        <ele>1155</ele>
        <time>2018-02-14T09:00:54Z</time>
      </trkpt>
      <trkpt lat="48.06036" lon="7.01424">
        <ele>1154</ele>
        <time>2018-02-14T09:01:12Z</time>
      </trkpt>
      <trkpt lat="48.06005" lon="7.01401">
        <ele>1153</ele>
        <time>2018-02-14T09:01:42Z</time>
      </trkpt>
      <trkpt lat="48.05981" lon="7.01378">
        <ele>1158</ele>
        <time>2018-02-14T09:02:05Z</time>
      </trkpt>
      <trkpt lat="48.05949" lon="7.01358">
        <ele>1159</ele>
        <time>2018-02-14T09:02:37Z</time>
      </trkpt>
      <trkpt lat="48.05945" lon="7.01355">
        <ele>1158</ele>
        <time>2018-02-14T09:02:41Z</time>
      </trkpt>
      <trkpt lat="48.0594" lon="7.01355">
        <ele>1158</ele>
        <time>2018-02-14T09:02:45Z</time>
      </trkpt>
      <trkpt lat="48.05932" lon="7.01349">
        <ele>1156</ele>
        <time>2018-02-14T09:02:54Z</time>
      </trkpt>
      <trkpt lat="48.05902" lon="7.01332">
        <ele>1157</ele>
        <time>2018-02-14T09:03:24Z</time>
      </trkpt>
      <trkpt lat="48.05897" lon="7.01331">
        <ele>1159</ele>
        <time>2018-02-14T09:03:28Z</time>
      </trkpt>
      <trkpt lat="48.05893" lon="7.01329">
        <ele>1160</ele>
        <time>2018-02-14T09:03:32Z</time>
      </trkpt>
      <trkpt lat="48.05866" lon="7.01322">
        <ele>1157</ele>
        <time>2018-02-14T09:04:02Z</time>
      </trkpt>
      <trkpt lat="48.05862" lon="7.01321">
        <ele>1156</ele>
        <time>2018-02-14T09:04:07Z</time>
      </trkpt>
      <trkpt lat="48.05858" lon="7.01318">
        <ele>1157</ele>
        <time>2018-02-14T09:04:11Z</time>
      </trkpt>
      <trkpt lat="48.05834" lon="7.01333">
        <ele>1150</ele>
        <time>2018-02-14T09:04:46Z</time>
      </trkpt>
      <trkpt lat="48.05819" lon="7.01318">
        <ele>1139</ele>
        <time>2018-02-14T09:04:50Z</time>
      </trkpt>
      <trkpt lat="48.05807" lon="7.01302">
        <ele>1158</ele>
        <time>2018-02-14T09:04:58Z</time>
      </trkpt>
      <trkpt lat="48.05785" lon="7.01297">
        <ele>1164</ele>
        <time>2018-02-14T09:05:18Z</time>
      </trkpt>
      <trkpt lat="48.05776" lon="7.01293">
        <ele>1166</ele>
        <time>2018-02-14T09:05:28Z</time>
      </trkpt>
      <trkpt lat="48.05763" lon="7.01288">
        <ele>1167</ele>
        <time>2018-02-14T09:05:44Z</time>
      </trkpt>
      <trkpt lat="48.05737" lon="7.01276">
        <ele>1165</ele>
        <time>2018-02-14T09:06:41Z</time>
      </trkpt>
      <trkpt lat="48.05732" lon="7.01274">
        <ele>1163</ele>
        <time>2018-02-14T09:06:46Z</time>
      </trkpt>
      <trkpt lat="48.05729" lon="7.01269">
        <ele>1163</ele>
        <time>2018-02-14T09:06:56Z</time>
      </trkpt>
      <trkpt lat="48.05723" lon="7.0126">
        <ele>1163</ele>
        <time>2018-02-14T09:07:06Z</time>
      </trkpt>
      <trkpt lat="48.0572" lon="7.01255">
        <ele>1164</ele>
        <time>2018-02-14T09:07:10Z</time>
      </trkpt>
      <trkpt lat="48.05716" lon="7.01251">
        <ele>1163</ele>
        <time>2018-02-14T09:07:20Z</time>
      </trkpt>
      <trkpt lat="48.05712" lon="7.01247">
        <ele>1161</ele>
        <time>2018-02-14T09:07:25Z</time>
      </trkpt>
      <trkpt lat="48.05708" lon="7.01236">
        <ele>1159</ele>
        <time>2018-02-14T09:07:36Z</time>
      </trkpt>
      <trkpt lat="48.05704" lon="7.01224">
        <ele>1157</ele>
        <time>2018-02-14T09:07:51Z</time>
      </trkpt>
      <trkpt lat="48.05703" lon="7.01217">
        <ele>1158</ele>
        <time>2018-02-14T09:07:56Z</time>
      </trkpt>
      <trkpt lat="48.05701" lon="7.01213">
        <ele>1159</ele>
        <time>2018-02-14T09:09:16Z</time>
      </trkpt>
      <trkpt lat="48.05686" lon="7.01174">
        <ele>1159</ele>
        <time>2018-02-14T09:09:47Z</time>
      </trkpt>
      <trkpt lat="48.05682" lon="7.01164">
        <ele>1149</ele>
        <time>2018-02-14T09:09:52Z</time>
      </trkpt>
      <trkpt lat="48.05682" lon="7.01156">
        <ele>1150</ele>
        <time>2018-02-14T09:09:56Z</time>
      </trkpt>
      <trkpt lat="48.0568" lon="7.01143">
        <ele>1143</ele>
        <time>2018-02-14T09:10:10Z</time>
      </trkpt>
      <trkpt lat="48.05674" lon="7.01131">
        <ele>1142</ele>
        <time>2018-02-14T09:10:20Z</time>
      </trkpt>
      <trkpt lat="48.05675" lon="7.01118">
        <ele>1146</ele>
        <time>2018-02-14T09:10:28Z</time>
      </trkpt>
      <trkpt lat="48.05674" lon="7.01111">
        <ele>1147</ele>
        <time>2018-02-14T09:10:33Z</time>
      </trkpt>
      <trkpt lat="48.05668" lon="7.01063">
        <ele>1138</ele>
        <time>2018-02-14T09:11:03Z</time>
      </trkpt>
      <trkpt lat="48.05665" lon="7.01034">
        <ele>1140</ele>
        <time>2018-02-14T09:11:17Z</time>
      </trkpt>
      <trkpt lat="48.05665" lon="7.01025">
        <ele>1142</ele>
        <time>2018-02-14T09:11:22Z</time>
      </trkpt>
      <trkpt lat="48.05664" lon="7.01018">
        <ele>1142</ele>
        <time>2018-02-14T09:11:28Z</time>
      </trkpt>
      <trkpt lat="48.05665" lon="7.01011">
        <ele>1141</ele>
        <time>2018-02-14T09:11:32Z</time>
      </trkpt>
      <trkpt lat="48.05664" lon="7.01006">
        <ele>1140</ele>
        <time>2018-02-14T09:11:36Z</time>
      </trkpt>
      <trkpt lat="48.05661" lon="7.00992">
        <ele>1134</ele>
        <time>2018-02-14T09:11:47Z</time>
      </trkpt>
      <trkpt lat="48.0566" lon="7.00986">
        <ele>1131</ele>
        <time>2018-02-14T09:11:52Z</time>
      </trkpt>
      <trkpt lat="48.05659" lon="7.0098">
        <ele>1130</ele>
        <time>2018-02-14T09:11:57Z</time>
      </trkpt>
      <trkpt lat="48.05659" lon="7.00965">
        <ele>1130</ele>
        <time>2018-02-14T09:12:05Z</time>
      </trkpt>
      <trkpt lat="48.05659" lon="7.00958">
        <ele>1132</ele>
        <time>2018-02-14T09:12:09Z</time>
      </trkpt>
      <trkpt lat="48.05658" lon="7.00952">
        <ele>1133</ele>
        <time>2018-02-14T09:12:13Z</time>
      </trkpt>
      <trkpt lat="48.05655" lon="7.00947">
        <ele>1135</ele>
        <time>2018-02-14T09:12:17Z</time>
      </trkpt>
      <trkpt lat="48.05654" lon="7.0094">
        <ele>1136</ele>
        <time>2018-02-14T09:12:21Z</time>
      </trkpt>
      <trkpt lat="48.05652" lon="7.00907">
        <ele>1137</ele>
        <time>2018-02-14T09:12:44Z</time>
      </trkpt>
      <trkpt lat="48.05649" lon="7.00887">
        <ele>1135</ele>
        <time>2018-02-14T09:12:59Z</time>
      </trkpt>
      <trkpt lat="48.05648" lon="7.0088">
        <ele>1135</ele>
        <time>2018-02-14T09:13:04Z</time>
      </trkpt>
      <trkpt lat="48.05648" lon="7.00874">
        <ele>1134</ele>
        <time>2018-02-14T09:13:09Z</time>
      </trkpt>
      <trkpt lat="48.05642" lon="7.00856">
        <ele>1129</ele>
        <time>2018-02-14T09:13:24Z</time>
      </trkpt>
      <trkpt lat="48.05641" lon="7.0085">
        <ele>1127</ele>
        <time>2018-02-14T09:13:29Z</time>
      </trkpt>
      <trkpt lat="48.0564" lon="7.00844">
        <ele>1125</ele>
        <time>2018-02-14T09:13:35Z</time>
      </trkpt>
      <trkpt lat="48.05635" lon="7.00824">
        <ele>1127</ele>
        <time>2018-02-14T09:13:46Z</time>
      </trkpt>
      <trkpt lat="48.05631" lon="7.00812">
        <ele>1128</ele>
        <time>2018-02-14T09:13:53Z</time>
      </trkpt>
      <trkpt lat="48.0562" lon="7.00783">
        <ele>1125</ele>
        <time>2018-02-14T09:14:15Z</time>
      </trkpt>
      <trkpt lat="48.05601" lon="7.00719">
        <ele>1121</ele>
        <time>2018-02-14T09:14:48Z</time>
      </trkpt>
      <trkpt lat="48.05593" lon="7.0073">
        <ele>1117</ele>
        <time>2018-02-14T09:14:52Z</time>
      </trkpt>
      <trkpt lat="48.05589" lon="7.00729">
        <ele>1121</ele>
        <time>2018-02-14T09:14:57Z</time>
      </trkpt>
      <trkpt lat="48.05586" lon="7.00725">
        <ele>1122</ele>
        <time>2018-02-14T09:15:02Z</time>
      </trkpt>
      <trkpt lat="48.05576" lon="7.00711">
        <ele>1124</ele>
        <time>2018-02-14T09:15:16Z</time>
      </trkpt>
      <trkpt lat="48.05561" lon="7.00686">
        <ele>1126</ele>
        <time>2018-02-14T09:15:51Z</time>
      </trkpt>
      <trkpt lat="48.05559" lon="7.00681">
        <ele>1125</ele>
        <time>2018-02-14T09:15:56Z</time>
      </trkpt>
      <trkpt lat="48.05556" lon="7.00676">
        <ele>1125</ele>
        <time>2018-02-14T09:15:59Z</time>
      </trkpt>
      <trkpt lat="48.05553" lon="7.00671">
        <ele>1124</ele>
        <time>2018-02-14T09:16:03Z</time>
      </trkpt>
      <trkpt lat="48.05529" lon="7.00635">
        <ele>1120</ele>
        <time>2018-02-14T09:16:35Z</time>
      </trkpt>
      <trkpt lat="48.05511" lon="7.00599">
        <ele>1116</ele>
        <time>2018-02-14T09:17:05Z</time>
      </trkpt>
      <trkpt lat="48.05496" lon="7.00578">
        <ele>1115</ele>
        <time>2018-02-14T09:17:22Z</time>
      </trkpt>
      <trkpt lat="48.05491" lon="7.00565">
        <ele>1112</ele>
        <time>2018-02-14T09:17:31Z</time>
      </trkpt>
      <trkpt lat="48.05485" lon="7.00555">
        <ele>1111</ele>
        <time>2018-02-14T09:17:38Z</time>
      </trkpt>
      <trkpt lat="48.05476" lon="7.00551">
        <ele>1111</ele>
        <time>2018-02-14T09:17:48Z</time>
      </trkpt>
      <trkpt lat="48.05473" lon="7.00546">
        <ele>1111</ele>
        <time>2018-02-14T09:17:53Z</time>
      </trkpt>
      <trkpt lat="48.05447" lon="7.00514">
        <ele>1113</ele>
        <time>2018-02-14T09:18:26Z</time>
      </trkpt>
      <trkpt lat="48.05417" lon="7.00493">
        <ele>1116</ele>
        <time>2018-02-14T09:18:56Z</time>
      </trkpt>
      <trkpt lat="48.05414" lon="7.00489">
        <ele>1117</ele>
        <time>2018-02-14T09:19:01Z</time>
      </trkpt>
      <trkpt lat="48.05411" lon="7.00494">
        <ele>1116</ele>
        <time>2018-02-14T09:19:07Z</time>
      </trkpt>
      <trkpt lat="48.05407" lon="7.00497">
        <ele>1113</ele>
        <time>2018-02-14T09:19:14Z</time>
      </trkpt>
      <trkpt lat="48.05385" lon="7.00538">
        <ele>1118</ele>
        <time>2018-02-14T09:19:48Z</time>
      </trkpt>
      <trkpt lat="48.05383" lon="7.00544">
        <ele>1119</ele>
        <time>2018-02-14T09:19:58Z</time>
      </trkpt>
      <trkpt lat="48.05384" lon="7.00552">
        <ele>1117</ele>
        <time>2018-02-14T09:20:06Z</time>
      </trkpt>
      <trkpt lat="48.05369" lon="7.00585">
        <ele>1116</ele>
        <time>2018-02-14T09:20:40Z</time>
      </trkpt>
      <trkpt lat="48.05368" lon="7.00591">
        <ele>1117</ele>
        <time>2018-02-14T09:20:46Z</time>
      </trkpt>
      <trkpt lat="48.05367" lon="7.00599">
        <ele>1119</ele>
        <time>2018-02-14T09:20:53Z</time>
      </trkpt>
      <trkpt lat="48.05364" lon="7.00612">
        <ele>1121</ele>
        <time>2018-02-14T09:21:04Z</time>
      </trkpt>
      <trkpt lat="48.05353" lon="7.00633">
        <ele>1123</ele>
        <time>2018-02-14T09:21:28Z</time>
      </trkpt>
      <trkpt lat="48.05346" lon="7.00641">
        <ele>1123</ele>
        <time>2018-02-14T09:21:38Z</time>
      </trkpt>
      <trkpt lat="48.0532" lon="7.00651">
        <ele>1128</ele>
        <time>2018-02-14T09:22:09Z</time>
      </trkpt>
      <trkpt lat="48.05316" lon="7.00648">
        <ele>1130</ele>
        <time>2018-02-14T09:22:40Z</time>
      </trkpt>
      <trkpt lat="48.05312" lon="7.00648">
        <ele>1130</ele>
        <time>2018-02-14T09:22:44Z</time>
      </trkpt>
      <trkpt lat="48.05307" lon="7.00647">
        <ele>1133</ele>
        <time>2018-02-14T09:22:49Z</time>
      </trkpt>
      <trkpt lat="48.05281" lon="7.00648">
        <ele>1135</ele>
        <time>2018-02-14T09:23:19Z</time>
      </trkpt>
      <trkpt lat="48.05275" lon="7.00649">
        <ele>1135</ele>
        <time>2018-02-14T09:23:25Z</time>
      </trkpt>
      <trkpt lat="48.05266" lon="7.00651">
        <ele>1136</ele>
        <time>2018-02-14T09:23:33Z</time>
      </trkpt>
      <trkpt lat="48.05262" lon="7.0065">
        <ele>1136</ele>
        <time>2018-02-14T09:23:38Z</time>
      </trkpt>
      <trkpt lat="48.0524" lon="7.0065">
        <ele>1142</ele>
        <time>2018-02-14T09:24:08Z</time>
      </trkpt>
      <trkpt lat="48.05204" lon="7.00651">
        <ele>1143</ele>
        <time>2018-02-14T09:24:48Z</time>
      </trkpt>
      <trkpt lat="48.05196" lon="7.00654">
        <ele>1149</ele>
        <time>2018-02-14T09:24:53Z</time>
      </trkpt>
      <trkpt lat="48.05188" lon="7.00653">
        <ele>1151</ele>
        <time>2018-02-14T09:25:10Z</time>
      </trkpt>
      <trkpt lat="48.05161" lon="7.00665">
        <ele>1147</ele>
        <time>2018-02-14T09:25:42Z</time>
      </trkpt>
      <trkpt lat="48.05152" lon="7.00666">
        <ele>1147</ele>
        <time>2018-02-14T09:25:54Z</time>
      </trkpt>
      <trkpt lat="48.05122" lon="7.00681">
        <ele>1149</ele>
        <time>2018-02-14T09:26:26Z</time>
      </trkpt>
      <trkpt lat="48.05117" lon="7.00683">
        <ele>1150</ele>
        <time>2018-02-14T09:26:33Z</time>
      </trkpt>
      <trkpt lat="48.05103" lon="7.00687">
        <ele>1154</ele>
        <time>2018-02-14T09:26:47Z</time>
      </trkpt>
      <trkpt lat="48.05098" lon="7.00691">
        <ele>1157</ele>
        <time>2018-02-14T09:26:54Z</time>
      </trkpt>
      <trkpt lat="48.05072" lon="7.00698">
        <ele>1157</ele>
        <time>2018-02-14T09:27:24Z</time>
      </trkpt>
      <trkpt lat="48.05061" lon="7.00698">
        <ele>1159</ele>
        <time>2018-02-14T09:27:35Z</time>
      </trkpt>
      <trkpt lat="48.05034" lon="7.00701">
        <ele>1161</ele>
        <time>2018-02-14T09:28:07Z</time>
      </trkpt>
      <trkpt lat="48.0503" lon="7.00699">
        <ele>1162</ele>
        <time>2018-02-14T09:28:14Z</time>
      </trkpt>
      <trkpt lat="48.05026" lon="7.007">
        <ele>1164</ele>
        <time>2018-02-14T09:28:20Z</time>
      </trkpt>
      <trkpt lat="48.05016" lon="7.00701">
        <ele>1166</ele>
        <time>2018-02-14T09:28:30Z</time>
      </trkpt>
      <trkpt lat="48.05008" lon="7.00701">
        <ele>1167</ele>
        <time>2018-02-14T09:28:40Z</time>
      </trkpt>
      <trkpt lat="48.04995" lon="7.007">
        <ele>1167</ele>
        <time>2018-02-14T09:28:53Z</time>
      </trkpt>
      <trkpt lat="48.0499" lon="7.007">
        <ele>1167</ele>
        <time>2018-02-14T09:28:58Z</time>
      </trkpt>
      <trkpt lat="48.04981" lon="7.007">
        <ele>1168</ele>
        <time>2018-02-14T09:29:10Z</time>
      </trkpt>
      <trkpt lat="48.04967" lon="7.00696">
        <ele>1165</ele>
        <time>2018-02-14T09:29:49Z</time>
      </trkpt>
      <trkpt lat="48.04963" lon="7.00698">
        <ele>1167</ele>
        <time>2018-02-14T09:29:51Z</time>
      </trkpt>
      <trkpt lat="48.04955" lon="7.00694">
        <ele>1171</ele>
        <time>2018-02-14T09:30:03Z</time>
      </trkpt>
      <trkpt lat="48.04951" lon="7.00693">
        <ele>1171</ele>
        <time>2018-02-14T09:30:08Z</time>
      </trkpt>
      <trkpt lat="48.04942" lon="7.00691">
        <ele>1172</ele>
        <time>2018-02-14T09:30:22Z</time>
      </trkpt>
      <trkpt lat="48.04937" lon="7.00691">
        <ele>1172</ele>
        <time>2018-02-14T09:30:26Z</time>
      </trkpt>
      <trkpt lat="48.04929" lon="7.00688">
        <ele>1173</ele>
        <time>2018-02-14T09:30:37Z</time>
      </trkpt>
      <trkpt lat="48.04924" lon="7.0069">
        <ele>1173</ele>
        <time>2018-02-14T09:30:43Z</time>
      </trkpt>
      <trkpt lat="48.0492" lon="7.0069">
        <ele>1174</ele>
        <time>2018-02-14T09:30:50Z</time>
      </trkpt>
      <trkpt lat="48.0491" lon="7.00689">
        <ele>1175</ele>
        <time>2018-02-14T09:30:59Z</time>
      </trkpt>
      <trkpt lat="48.04906" lon="7.00691">
        <ele>1177</ele>
        <time>2018-02-14T09:31:04Z</time>
      </trkpt>
      <trkpt lat="48.04902" lon="7.00692">
        <ele>1177</ele>
        <time>2018-02-14T09:31:10Z</time>
      </trkpt>
      <trkpt lat="48.04893" lon="7.00693">
        <ele>1179</ele>
        <time>2018-02-14T09:31:23Z</time>
      </trkpt>
      <trkpt lat="48.04889" lon="7.00691">
        <ele>1178</ele>
        <time>2018-02-14T09:33:36Z</time>
      </trkpt>
      <trkpt lat="48.0488" lon="7.00694">
        <ele>1177</ele>
        <time>2018-02-14T09:33:52Z</time>
      </trkpt>
      <trkpt lat="48.04867" lon="7.00693">
        <ele>1180</ele>
        <time>2018-02-14T09:34:16Z</time>
      </trkpt>
      <trkpt lat="48.04831" lon="7.00694">
        <ele>1183</ele>
        <time>2018-02-14T09:34:52Z</time>
      </trkpt>
      <trkpt lat="48.04828" lon="7.00686">
        <ele>1188</ele>
        <time>2018-02-14T09:34:56Z</time>
      </trkpt>
      <trkpt lat="48.04822" lon="7.0069">
        <ele>1190</ele>
        <time>2018-02-14T09:35:17Z</time>
      </trkpt>
      <trkpt lat="48.04817" lon="7.00684">
        <ele>1191</ele>
        <time>2018-02-14T09:35:22Z</time>
      </trkpt>
      <trkpt lat="48.04813" lon="7.00687">
        <ele>1191</ele>
        <time>2018-02-14T09:35:27Z</time>
      </trkpt>
      <trkpt lat="48.04783" lon="7.00684">
        <ele>1193</ele>
        <time>2018-02-14T09:36:00Z</time>
      </trkpt>
      <trkpt lat="48.04779" lon="7.00685">
        <ele>1192</ele>
        <time>2018-02-14T09:36:07Z</time>
      </trkpt>
      <trkpt lat="48.04775" lon="7.00683">
        <ele>1191</ele>
        <time>2018-02-14T09:36:26Z</time>
      </trkpt>
      <trkpt lat="48.04771" lon="7.00684">
        <ele>1192</ele>
        <time>2018-02-14T09:38:44Z</time>
      </trkpt>
      <trkpt lat="48.04767" lon="7.00681">
        <ele>1192</ele>
        <time>2018-02-14T09:39:01Z</time>
      </trkpt>
      <trkpt lat="48.04763" lon="7.00684">
        <ele>1200</ele>
        <time>2018-02-14T09:41:55Z</time>
      </trkpt>
      <trkpt lat="48.04759" lon="7.00682">
        <ele>1200</ele>
        <time>2018-02-14T09:42:06Z</time>
      </trkpt>
      <trkpt lat="48.04755" lon="7.00684">
        <ele>1199</ele>
        <time>2018-02-14T09:42:11Z</time>
      </trkpt>
      <trkpt lat="48.04741" lon="7.00681">
        <ele>1197</ele>
        <time>2018-02-14T09:42:32Z</time>
      </trkpt>
      <trkpt lat="48.04738" lon="7.00684">
        <ele>1198</ele>
        <time>2018-02-14T09:42:41Z</time>
      </trkpt>
      <trkpt lat="48.04734" lon="7.00682">
        <ele>1196</ele>
        <time>2018-02-14T09:45:08Z</time>
      </trkpt>
      <trkpt lat="48.04728" lon="7.00684">
        <ele>1197</ele>
        <time>2018-02-14T09:45:16Z</time>
      </trkpt>
      <trkpt lat="48.04724" lon="7.00686">
        <ele>1198</ele>
        <time>2018-02-14T09:45:22Z</time>
      </trkpt>
      <trkpt lat="48.04717" lon="7.00688">
        <ele>1200</ele>
        <time>2018-02-14T09:45:30Z</time>
      </trkpt>
      <trkpt lat="48.04692" lon="7.00691">
        <ele>1204</ele>
        <time>2018-02-14T09:45:53Z</time>
      </trkpt>
      <trkpt lat="48.04686" lon="7.00692">
        <ele>1205</ele>
        <time>2018-02-14T09:45:59Z</time>
      </trkpt>
      <trkpt lat="48.04676" lon="7.00691">
        <ele>1205</ele>
        <time>2018-02-14T09:46:10Z</time>
      </trkpt>
      <trkpt lat="48.04653" lon="7.00696">
        <ele>1207</ele>
        <time>2018-02-14T09:46:32Z</time>
      </trkpt>
      <trkpt lat="48.04649" lon="7.00696">
        <ele>1209</ele>
        <time>2018-02-14T09:46:37Z</time>
      </trkpt>
      <trkpt lat="48.0464" lon="7.00696">
        <ele>1209</ele>
        <time>2018-02-14T09:46:47Z</time>
      </trkpt>
      <trkpt lat="48.04636" lon="7.00694">
        <ele>1210</ele>
        <time>2018-02-14T09:46:52Z</time>
      </trkpt>
      <trkpt lat="48.04627" lon="7.00692">
        <ele>1212</ele>
        <time>2018-02-14T09:47:04Z</time>
      </trkpt>
      <trkpt lat="48.04623" lon="7.00689">
        <ele>1213</ele>
        <time>2018-02-14T09:47:12Z</time>
      </trkpt>
      <trkpt lat="48.04618" lon="7.00688">
        <ele>1214</ele>
        <time>2018-02-14T09:47:17Z</time>
      </trkpt>
      <trkpt lat="48.04612" lon="7.00688">
        <ele>1214</ele>
        <time>2018-02-14T09:47:22Z</time>
      </trkpt>
      <trkpt lat="48.04589" lon="7.00676">
        <ele>1214</ele>
        <time>2018-02-14T09:47:51Z</time>
      </trkpt>
      <trkpt lat="48.04584" lon="7.00676">
        <ele>1214</ele>
        <time>2018-02-14T09:47:55Z</time>
      </trkpt>
      <trkpt lat="48.04581" lon="7.00673">
        <ele>1215</ele>
        <time>2018-02-14T09:47:59Z</time>
      </trkpt>
      <trkpt lat="48.04574" lon="7.00673">
        <ele>1216</ele>
        <time>2018-02-14T09:48:05Z</time>
      </trkpt>
      <trkpt lat="48.0457" lon="7.00672">
        <ele>1217</ele>
        <time>2018-02-14T09:48:08Z</time>
      </trkpt>
      <trkpt lat="48.04566" lon="7.00671">
        <ele>1218</ele>
        <time>2018-02-14T09:48:14Z</time>
      </trkpt>
      <trkpt lat="48.04562" lon="7.00668">
        <ele>1218</ele>
        <time>2018-02-14T09:48:21Z</time>
      </trkpt>
      <trkpt lat="48.04558" lon="7.00668">
        <ele>1217</ele>
        <time>2018-02-14T09:48:26Z</time>
      </trkpt>
      <trkpt lat="48.0455" lon="7.00666">
        <ele>1217</ele>
        <time>2018-02-14T09:48:37Z</time>
      </trkpt>
      <trkpt lat="48.04546" lon="7.00661">
        <ele>1218</ele>
        <time>2018-02-14T09:48:42Z</time>
      </trkpt>
      <trkpt lat="48.04542" lon="7.00658">
        <ele>1218</ele>
        <time>2018-02-14T09:48:47Z</time>
      </trkpt>
      <trkpt lat="48.04534" lon="7.00654">
        <ele>1219</ele>
        <time>2018-02-14T09:48:56Z</time>
      </trkpt>
      <trkpt lat="48.04529" lon="7.00654">
        <ele>1221</ele>
        <time>2018-02-14T09:49:03Z</time>
      </trkpt>
      <trkpt lat="48.04519" lon="7.00651">
        <ele>1221</ele>
        <time>2018-02-14T09:49:14Z</time>
      </trkpt>
      <trkpt lat="48.04515" lon="7.00646">
        <ele>1221</ele>
        <time>2018-02-14T09:49:19Z</time>
      </trkpt>
      <trkpt lat="48.04474" lon="7.00648">
        <ele>1230</ele>
        <time>2018-02-14T09:49:53Z</time>
      </trkpt>
      <trkpt lat="48.04478" lon="7.0064">
        <ele>1234</ele>
        <time>2018-02-14T09:49:56Z</time>
      </trkpt>
      <trkpt lat="48.04472" lon="7.00623">
        <ele>1228</ele>
        <time>2018-02-14T09:50:22Z</time>
      </trkpt>
      <trkpt lat="48.04468" lon="7.0062">
        <ele>1227</ele>
        <time>2018-02-14T09:51:32Z</time>
      </trkpt>
      <trkpt lat="48.04463" lon="7.0061">
        <ele>1226</ele>
        <time>2018-02-14T09:51:44Z</time>
      </trkpt>
      <trkpt lat="48.0446" lon="7.00597">
        <ele>1223</ele>
        <time>2018-02-14T09:51:57Z</time>
      </trkpt>
      <trkpt lat="48.0446" lon="7.00591">
        <ele>1223</ele>
        <time>2018-02-14T09:52:01Z</time>
      </trkpt>
      <trkpt lat="48.04449" lon="7.0057">
        <ele>1225</ele>
        <time>2018-02-14T09:52:21Z</time>
      </trkpt>
      <trkpt lat="48.04444" lon="7.00564">
        <ele>1225</ele>
        <time>2018-02-14T09:52:27Z</time>
      </trkpt>
      <trkpt lat="48.04442" lon="7.00558">
        <ele>1223</ele>
        <time>2018-02-14T09:52:33Z</time>
      </trkpt>
      <trkpt lat="48.0444" lon="7.00552">
        <ele>1222</ele>
        <time>2018-02-14T09:52:38Z</time>
      </trkpt>
      <trkpt lat="48.04433" lon="7.00535">
        <ele>1220</ele>
        <time>2018-02-14T09:52:50Z</time>
      </trkpt>
      <trkpt lat="48.04428" lon="7.00529">
        <ele>1218</ele>
        <time>2018-02-14T09:52:59Z</time>
      </trkpt>
      <trkpt lat="48.04421" lon="7.00515">
        <ele>1219</ele>
        <time>2018-02-14T09:53:09Z</time>
      </trkpt>
      <trkpt lat="48.04417" lon="7.00509">
        <ele>1220</ele>
        <time>2018-02-14T09:53:15Z</time>
      </trkpt>
      <trkpt lat="48.04412" lon="7.00504">
        <ele>1220</ele>
        <time>2018-02-14T09:53:22Z</time>
      </trkpt>
      <trkpt lat="48.0441" lon="7.00499">
        <ele>1219</ele>
        <time>2018-02-14T09:53:34Z</time>
      </trkpt>
      <trkpt lat="48.04409" lon="7.00491">
        <ele>1213</ele>
        <time>2018-02-14T09:53:41Z</time>
      </trkpt>
      <trkpt lat="48.04407" lon="7.00486">
        <ele>1211</ele>
        <time>2018-02-14T09:53:45Z</time>
      </trkpt>
      <trkpt lat="48.04394" lon="7.00464">
        <ele>1207</ele>
        <time>2018-02-14T09:54:04Z</time>
      </trkpt>
      <trkpt lat="48.04389" lon="7.00447">
        <ele>1212</ele>
        <time>2018-02-14T09:54:16Z</time>
      </trkpt>
      <trkpt lat="48.04366" lon="7.00398">
        <ele>1217</ele>
        <time>2018-02-14T09:54:54Z</time>
      </trkpt>
      <trkpt lat="48.04361" lon="7.00399">
        <ele>1208</ele>
        <time>2018-02-14T09:55:06Z</time>
      </trkpt>
      <trkpt lat="48.04357" lon="7.00396">
        <ele>1207</ele>
        <time>2018-02-14T09:55:12Z</time>
      </trkpt>
      <trkpt lat="48.04354" lon="7.00391">
        <ele>1207</ele>
        <time>2018-02-14T09:55:17Z</time>
      </trkpt>
      <trkpt lat="48.04351" lon="7.00386">
        <ele>1207</ele>
        <time>2018-02-14T09:55:24Z</time>
      </trkpt>
      <trkpt lat="48.04342" lon="7.00368">
        <ele>1206</ele>
        <time>2018-02-14T09:55:47Z</time>
      </trkpt>
      <trkpt lat="48.04338" lon="7.00364">
        <ele>1205</ele>
        <time>2018-02-14T09:55:54Z</time>
      </trkpt>
      <trkpt lat="48.04328" lon="7.0035">
        <ele>1205</ele>
        <time>2018-02-14T09:56:23Z</time>
      </trkpt>
      <trkpt lat="48.04312" lon="7.00318">
        <ele>1206</ele>
        <time>2018-02-14T09:56:52Z</time>
      </trkpt>
      <trkpt lat="48.0431" lon="7.00312">
        <ele>1206</ele>
        <time>2018-02-14T09:56:57Z</time>
      </trkpt>
      <trkpt lat="48.04312" lon="7.00306">
        <ele>1205</ele>
        <time>2018-02-14T09:57:16Z</time>
      </trkpt>
      <trkpt lat="48.04312" lon="7.003">
        <ele>1204</ele>
        <time>2018-02-14T10:03:52Z</time>
      </trkpt>
      <trkpt lat="48.04309" lon="7.00294">
        <ele>1204</ele>
        <time>2018-02-14T10:03:58Z</time>
      </trkpt>
      <trkpt lat="48.04306" lon="7.00297">
        <ele>1204</ele>
        <time>2018-02-14T10:04:07Z</time>
      </trkpt>
      <trkpt lat="48.04303" lon="7.00301">
        <ele>1203</ele>
        <time>2018-02-14T10:05:27Z</time>
      </trkpt>
      <trkpt lat="48.04298" lon="7.00302">
        <ele>1204</ele>
        <time>2018-02-14T10:05:54Z</time>
      </trkpt>
      <trkpt lat="48.04294" lon="7.00301">
        <ele>1205</ele>
        <time>2018-02-14T10:05:59Z</time>
      </trkpt>
      <trkpt lat="48.04271" lon="7.00303">
        <ele>1208</ele>
        <time>2018-02-14T10:06:24Z</time>
      </trkpt>
      <trkpt lat="48.04245" lon="7.00316">
        <ele>1211</ele>
        <time>2018-02-14T10:06:53Z</time>
      </trkpt>
      <trkpt lat="48.04242" lon="7.0032">
        <ele>1212</ele>
        <time>2018-02-14T10:06:59Z</time>
      </trkpt>
      <trkpt lat="48.04228" lon="7.00337">
        <ele>1215</ele>
        <time>2018-02-14T10:07:21Z</time>
      </trkpt>
      <trkpt lat="48.04207" lon="7.00367">
        <ele>1220</ele>
        <time>2018-02-14T10:07:51Z</time>
      </trkpt>
      <trkpt lat="48.04203" lon="7.0037">
        <ele>1220</ele>
        <time>2018-02-14T10:07:57Z</time>
      </trkpt>
      <trkpt lat="48.04192" lon="7.00385">
        <ele>1222</ele>
        <time>2018-02-14T10:08:12Z</time>
      </trkpt>
      <trkpt lat="48.04173" lon="7.00414">
        <ele>1224</ele>
        <time>2018-02-14T10:08:43Z</time>
      </trkpt>
      <trkpt lat="48.04162" lon="7.00425">
        <ele>1227</ele>
        <time>2018-02-14T10:08:57Z</time>
      </trkpt>
      <trkpt lat="48.04153" lon="7.00438">
        <ele>1227</ele>
        <time>2018-02-14T10:09:10Z</time>
      </trkpt>
      <trkpt lat="48.0415" lon="7.00443">
        <ele>1229</ele>
        <time>2018-02-14T10:09:13Z</time>
      </trkpt>
      <trkpt lat="48.04147" lon="7.00447">
        <ele>1230</ele>
        <time>2018-02-14T10:09:18Z</time>
      </trkpt>
      <trkpt lat="48.04128" lon="7.00499">
        <ele>1226</ele>
        <time>2018-02-14T10:09:55Z</time>
      </trkpt>
      <trkpt lat="48.04123" lon="7.00501">
        <ele>1230</ele>
        <time>2018-02-14T10:09:59Z</time>
      </trkpt>
      <trkpt lat="48.04119" lon="7.00502">
        <ele>1233</ele>
        <time>2018-02-14T10:10:01Z</time>
      </trkpt>
      <trkpt lat="48.0412" lon="7.00508">
        <ele>1235</ele>
        <time>2018-02-14T10:10:06Z</time>
      </trkpt>
      <trkpt lat="48.04118" lon="7.00513">
        <ele>1236</ele>
        <time>2018-02-14T10:10:11Z</time>
      </trkpt>
      <trkpt lat="48.04112" lon="7.00515">
        <ele>1238</ele>
        <time>2018-02-14T10:10:14Z</time>
      </trkpt>
      <trkpt lat="48.04105" lon="7.00533">
        <ele>1239</ele>
        <time>2018-02-14T10:10:31Z</time>
      </trkpt>
      <trkpt lat="48.04101" lon="7.00537">
        <ele>1239</ele>
        <time>2018-02-14T10:11:25Z</time>
      </trkpt>
      <trkpt lat="48.04098" lon="7.00542">
        <ele>1239</ele>
        <time>2018-02-14T10:11:30Z</time>
      </trkpt>
      <trkpt lat="48.04094" lon="7.00546">
        <ele>1239</ele>
        <time>2018-02-14T10:11:35Z</time>
      </trkpt>
      <trkpt lat="48.04087" lon="7.00553">
        <ele>1239</ele>
        <time>2018-02-14T10:11:43Z</time>
      </trkpt>
      <trkpt lat="48.04084" lon="7.0056">
        <ele>1240</ele>
        <time>2018-02-14T10:11:47Z</time>
      </trkpt>
      <trkpt lat="48.04072" lon="7.00574">
        <ele>1241</ele>
        <time>2018-02-14T10:12:03Z</time>
      </trkpt>
      <trkpt lat="48.0406" lon="7.00584">
        <ele>1239</ele>
        <time>2018-02-14T10:12:18Z</time>
      </trkpt>
      <trkpt lat="48.04053" lon="7.00593">
        <ele>1238</ele>
        <time>2018-02-14T10:12:27Z</time>
      </trkpt>
      <trkpt lat="48.04046" lon="7.00602">
        <ele>1239</ele>
        <time>2018-02-14T10:13:00Z</time>
      </trkpt>
      <trkpt lat="48.04042" lon="7.00606">
        <ele>1239</ele>
        <time>2018-02-14T10:13:05Z</time>
      </trkpt>
      <trkpt lat="48.04035" lon="7.00616">
        <ele>1238</ele>
        <time>2018-02-14T10:13:14Z</time>
      </trkpt>
      <trkpt lat="48.04023" lon="7.00634">
        <ele>1239</ele>
        <time>2018-02-14T10:13:37Z</time>
      </trkpt>
      <trkpt lat="48.04013" lon="7.00647">
        <ele>1240</ele>
        <time>2018-02-14T10:13:50Z</time>
      </trkpt>
      <trkpt lat="48.04008" lon="7.00658">
        <ele>1241</ele>
        <time>2018-02-14T10:13:59Z</time>
      </trkpt>
      <trkpt lat="48.03997" lon="7.0068">
        <ele>1242</ele>
        <time>2018-02-14T10:14:17Z</time>
      </trkpt>
      <trkpt lat="48.03981" lon="7.00734">
        <ele>1240</ele>
        <time>2018-02-14T10:14:56Z</time>
      </trkpt>
      <trkpt lat="48.03977" lon="7.00736">
        <ele>1239</ele>
        <time>2018-02-14T10:14:58Z</time>
      </trkpt>
      <trkpt lat="48.03976" lon="7.00743">
        <ele>1239</ele>
        <time>2018-02-14T10:15:02Z</time>
      </trkpt>
      <trkpt lat="48.03967" lon="7.00757">
        <ele>1240</ele>
        <time>2018-02-14T10:15:15Z</time>
      </trkpt>
      <trkpt lat="48.03966" lon="7.00764">
        <ele>1239</ele>
        <time>2018-02-14T10:15:21Z</time>
      </trkpt>
      <trkpt lat="48.03965" lon="7.0077">
        <ele>1240</ele>
        <time>2018-02-14T10:15:29Z</time>
      </trkpt>
      <trkpt lat="48.03968" lon="7.00775">
        <ele>1240</ele>
        <time>2018-02-14T10:15:48Z</time>
      </trkpt>
      <trkpt lat="48.03972" lon="7.00778">
        <ele>1240</ele>
        <time>2018-02-14T10:15:57Z</time>
      </trkpt>
      <trkpt lat="48.03974" lon="7.00785">
        <ele>1241</ele>
        <time>2018-02-14T10:16:05Z</time>
      </trkpt>
      <trkpt lat="48.03978" lon="7.00789">
        <ele>1242</ele>
        <time>2018-02-14T10:16:12Z</time>
      </trkpt>
      <trkpt lat="48.03981" lon="7.00783">
        <ele>1243</ele>
        <time>2018-02-14T10:16:20Z</time>
      </trkpt>
      <trkpt lat="48.03998" lon="7.00752">
        <ele>1244</ele>
        <time>2018-02-14T10:16:51Z</time>
      </trkpt>
      <trkpt lat="48.04002" lon="7.00748">
        <ele>1244</ele>
        <time>2018-02-14T10:16:57Z</time>
      </trkpt>
      <trkpt lat="48.04004" lon="7.00742">
        <ele>1245</ele>
        <time>2018-02-14T10:17:03Z</time>
      </trkpt>
      <trkpt lat="48.04008" lon="7.00738">
        <ele>1246</ele>
        <time>2018-02-14T10:17:08Z</time>
      </trkpt>
      <trkpt lat="48.04021" lon="7.00721">
        <ele>1248</ele>
        <time>2018-02-14T10:17:34Z</time>
      </trkpt>
      <trkpt lat="48.04031" lon="7.0072">
        <ele>1251</ele>
        <time>2018-02-14T10:17:48Z</time>
      </trkpt>
      <trkpt lat="48.04049" lon="7.00712">
        <ele>1251</ele>
        <time>2018-02-14T10:18:19Z</time>
      </trkpt>
      <trkpt lat="48.04053" lon="7.00712">
        <ele>1253</ele>
        <time>2018-02-14T10:18:27Z</time>
      </trkpt>
      <trkpt lat="48.04058" lon="7.0071">
        <ele>1254</ele>
        <time>2018-02-14T10:18:34Z</time>
      </trkpt>
      <trkpt lat="48.04063" lon="7.00709">
        <ele>1255</ele>
        <time>2018-02-14T10:18:41Z</time>
      </trkpt>
      <trkpt lat="48.04067" lon="7.00707">
        <ele>1255</ele>
        <time>2018-02-14T10:18:47Z</time>
      </trkpt>
      <trkpt lat="48.04071" lon="7.00704">
        <ele>1256</ele>
        <time>2018-02-14T10:18:53Z</time>
      </trkpt>
      <trkpt lat="48.04076" lon="7.00701">
        <ele>1257</ele>
        <time>2018-02-14T10:20:03Z</time>
      </trkpt>
      <trkpt lat="48.04079" lon="7.00697">
        <ele>1255</ele>
        <time>2018-02-14T10:20:09Z</time>
      </trkpt>
      <trkpt lat="48.04102" lon="7.0069">
        <ele>1260</ele>
        <time>2018-02-14T10:20:44Z</time>
      </trkpt>
      <trkpt lat="48.04119" lon="7.00686">
        <ele>1263</ele>
        <time>2018-02-14T10:21:08Z</time>
      </trkpt>
      <trkpt lat="48.04129" lon="7.00688">
        <ele>1263</ele>
        <time>2018-02-14T10:21:22Z</time>
      </trkpt>
      <trkpt lat="48.04134" lon="7.00688">
        <ele>1264</ele>
        <time>2018-02-14T10:21:28Z</time>
      </trkpt>
      <trkpt lat="48.04138" lon="7.00686">
        <ele>1265</ele>
        <time>2018-02-14T10:21:35Z</time>
      </trkpt>
      <trkpt lat="48.04142" lon="7.0069">
        <ele>1265</ele>
        <time>2018-02-14T10:21:45Z</time>
      </trkpt>
      <trkpt lat="48.04145" lon="7.00693">
        <ele>1266</ele>
        <time>2018-02-14T10:21:52Z</time>
      </trkpt>
      <trkpt lat="48.04149" lon="7.00697">
        <ele>1269</ele>
        <time>2018-02-14T10:22:02Z</time>
      </trkpt>
      <trkpt lat="48.0415" lon="7.00703">
        <ele>1270</ele>
        <time>2018-02-14T10:22:12Z</time>
      </trkpt>
      <trkpt lat="48.04153" lon="7.00715">
        <ele>1273</ele>
        <time>2018-02-14T10:22:46Z</time>
      </trkpt>
      <trkpt lat="48.04156" lon="7.0072">
        <ele>1275</ele>
        <time>2018-02-14T10:22:54Z</time>
      </trkpt>
      <trkpt lat="48.04161" lon="7.00721">
        <ele>1276</ele>
        <time>2018-02-14T10:23:06Z</time>
      </trkpt>
      <trkpt lat="48.04165" lon="7.00721">
        <ele>1278</ele>
        <time>2018-02-14T10:23:14Z</time>
      </trkpt>
      <trkpt lat="48.04169" lon="7.00722">
        <ele>1277</ele>
        <time>2018-02-14T10:23:20Z</time>
      </trkpt>
      <trkpt lat="48.04174" lon="7.00722">
        <ele>1278</ele>
        <time>2018-02-14T10:23:29Z</time>
      </trkpt>
      <trkpt lat="48.04178" lon="7.00722">
        <ele>1278</ele>
        <time>2018-02-14T10:23:36Z</time>
      </trkpt>
      <trkpt lat="48.0418" lon="7.00717">
        <ele>1278</ele>
        <time>2018-02-14T10:23:43Z</time>
      </trkpt>
      <trkpt lat="48.04193" lon="7.00697">
        <ele>1277</ele>
        <time>2018-02-14T10:24:06Z</time>
      </trkpt>
      <trkpt lat="48.04235" lon="7.00669">
        <ele>1277</ele>
        <time>2018-02-14T10:24:57Z</time>
      </trkpt>
      <trkpt lat="48.04246" lon="7.00655">
        <ele>1276</ele>
        <time>2018-02-14T10:25:12Z</time>
      </trkpt>
      <trkpt lat="48.04255" lon="7.00648">
        <ele>1273</ele>
        <time>2018-02-14T10:25:20Z</time>
      </trkpt>
      <trkpt lat="48.04287" lon="7.00644">
        <ele>1270</ele>
        <time>2018-02-14T10:25:52Z</time>
      </trkpt>
      <trkpt lat="48.04292" lon="7.00643">
        <ele>1269</ele>
        <time>2018-02-14T10:25:58Z</time>
      </trkpt>
      <trkpt lat="48.0431" lon="7.00645">
        <ele>1268</ele>
        <time>2018-02-14T10:26:17Z</time>
      </trkpt>
      <trkpt lat="48.04341" lon="7.00658">
        <ele>1268</ele>
        <time>2018-02-14T10:26:49Z</time>
      </trkpt>
      <trkpt lat="48.04344" lon="7.00662">
        <ele>1268</ele>
        <time>2018-02-14T10:26:54Z</time>
      </trkpt>
      <trkpt lat="48.04346" lon="7.00668">
        <ele>1267</ele>
        <time>2018-02-14T10:27:00Z</time>
      </trkpt>
      <trkpt lat="48.04345" lon="7.00674">
        <ele>1268</ele>
        <time>2018-02-14T10:27:06Z</time>
      </trkpt>
      <trkpt lat="48.04359" lon="7.00701">
        <ele>1273</ele>
        <time>2018-02-14T10:27:37Z</time>
      </trkpt>
      <trkpt lat="48.04366" lon="7.0071">
        <ele>1273</ele>
        <time>2018-02-14T10:27:48Z</time>
      </trkpt>
      <trkpt lat="48.0437" lon="7.00713">
        <ele>1273</ele>
        <time>2018-02-14T10:27:54Z</time>
      </trkpt>
      <trkpt lat="48.04374" lon="7.00715">
        <ele>1272</ele>
        <time>2018-02-14T10:28:00Z</time>
      </trkpt>
      <trkpt lat="48.04386" lon="7.00728">
        <ele>1271</ele>
        <time>2018-02-14T10:28:18Z</time>
      </trkpt>
      <trkpt lat="48.0439" lon="7.0074">
        <ele>1271</ele>
        <time>2018-02-14T10:28:32Z</time>
      </trkpt>
      <trkpt lat="48.04395" lon="7.0075">
        <ele>1271</ele>
        <time>2018-02-14T10:28:42Z</time>
      </trkpt>
      <trkpt lat="48.04399" lon="7.00762">
        <ele>1272</ele>
        <time>2018-02-14T10:28:53Z</time>
      </trkpt>
      <trkpt lat="48.044" lon="7.00769">
        <ele>1273</ele>
        <time>2018-02-14T10:29:00Z</time>
      </trkpt>
      <trkpt lat="48.04403" lon="7.00774">
        <ele>1274</ele>
        <time>2018-02-14T10:29:06Z</time>
      </trkpt>
      <trkpt lat="48.04414" lon="7.00787">
        <ele>1273</ele>
        <time>2018-02-14T10:29:21Z</time>
      </trkpt>
      <trkpt lat="48.04417" lon="7.00792">
        <ele>1272</ele>
        <time>2018-02-14T10:30:37Z</time>
      </trkpt>
      <trkpt lat="48.04421" lon="7.00794">
        <ele>1270</ele>
        <time>2018-02-14T10:34:12Z</time>
      </trkpt>
      <trkpt lat="48.04428" lon="7.00803">
        <ele>1271</ele>
        <time>2018-02-14T10:34:21Z</time>
      </trkpt>
      <trkpt lat="48.04442" lon="7.00836">
        <ele>1272</ele>
        <time>2018-02-14T10:34:57Z</time>
      </trkpt>
      <trkpt lat="48.04443" lon="7.00842">
        <ele>1273</ele>
        <time>2018-02-14T10:35:03Z</time>
      </trkpt>
      <trkpt lat="48.04445" lon="7.00848">
        <ele>1276</ele>
        <time>2018-02-14T10:35:08Z</time>
      </trkpt>
      <trkpt lat="48.04462" lon="7.00872">
        <ele>1277</ele>
        <time>2018-02-14T10:35:31Z</time>
      </trkpt>
      <trkpt lat="48.04464" lon="7.00878">
        <ele>1277</ele>
        <time>2018-02-14T10:35:37Z</time>
      </trkpt>
      <trkpt lat="48.04467" lon="7.00882">
        <ele>1277</ele>
        <time>2018-02-14T10:35:42Z</time>
      </trkpt>
      <trkpt lat="48.04471" lon="7.00887">
        <ele>1278</ele>
        <time>2018-02-14T10:35:46Z</time>
      </trkpt>
      <trkpt lat="48.04478" lon="7.00896">
        <ele>1276</ele>
        <time>2018-02-14T10:35:53Z</time>
      </trkpt>
      <trkpt lat="48.04502" lon="7.00929">
        <ele>1274</ele>
        <time>2018-02-14T10:36:25Z</time>
      </trkpt>
      <trkpt lat="48.04511" lon="7.00945">
        <ele>1274</ele>
        <time>2018-02-14T10:36:39Z</time>
      </trkpt>
      <trkpt lat="48.04527" lon="7.00967">
        <ele>1273</ele>
        <time>2018-02-14T10:37:12Z</time>
      </trkpt>
      <trkpt lat="48.04538" lon="7.00982">
        <ele>1274</ele>
        <time>2018-02-14T10:37:26Z</time>
      </trkpt>
      <trkpt lat="48.04544" lon="7.00991">
        <ele>1275</ele>
        <time>2018-02-14T10:37:37Z</time>
      </trkpt>
      <trkpt lat="48.04547" lon="7.00995">
        <ele>1275</ele>
        <time>2018-02-14T10:37:44Z</time>
      </trkpt>
      <trkpt lat="48.04573" lon="7.01015">
        <ele>1277</ele>
        <time>2018-02-14T10:38:17Z</time>
      </trkpt>
      <trkpt lat="48.04584" lon="7.01026">
        <ele>1278</ele>
        <time>2018-02-14T10:38:33Z</time>
      </trkpt>
      <trkpt lat="48.04591" lon="7.01035">
        <ele>1279</ele>
        <time>2018-02-14T10:38:43Z</time>
      </trkpt>
      <trkpt lat="48.046" lon="7.01041">
        <ele>1279</ele>
        <time>2018-02-14T10:38:54Z</time>
      </trkpt>
      <trkpt lat="48.0462" lon="7.01054">
        <ele>1280</ele>
        <time>2018-02-14T10:39:26Z</time>
      </trkpt>
      <trkpt lat="48.04635" lon="7.01081">
        <ele>1277</ele>
        <time>2018-02-14T10:39:56Z</time>
      </trkpt>
      <trkpt lat="48.04639" lon="7.01079">
        <ele>1281</ele>
        <time>2018-02-14T10:39:59Z</time>
      </trkpt>
      <trkpt lat="48.0467" lon="7.01093">
        <ele>1278</ele>
        <time>2018-02-14T10:40:29Z</time>
      </trkpt>
      <trkpt lat="48.04706" lon="7.0111">
        <ele>1277</ele>
        <time>2018-02-14T10:41:02Z</time>
      </trkpt>
      <trkpt lat="48.04736" lon="7.0113">
        <ele>1277</ele>
        <time>2018-02-14T10:41:33Z</time>
      </trkpt>
      <trkpt lat="48.0477" lon="7.01159">
        <ele>1273</ele>
        <time>2018-02-14T10:42:06Z</time>
      </trkpt>
      <trkpt lat="48.04779" lon="7.01167">
        <ele>1273</ele>
        <time>2018-02-14T10:42:15Z</time>
      </trkpt>
      <trkpt lat="48.04784" lon="7.01169">
        <ele>1273</ele>
        <time>2018-02-14T10:42:18Z</time>
      </trkpt>
      <trkpt lat="48.04788" lon="7.01172">
        <ele>1273</ele>
        <time>2018-02-14T10:42:22Z</time>
      </trkpt>
      <trkpt lat="48.04793" lon="7.01172">
        <ele>1273</ele>
        <time>2018-02-14T10:42:26Z</time>
      </trkpt>
      <trkpt lat="48.0482" lon="7.01188">
        <ele>1270</ele>
        <time>2018-02-14T10:42:49Z</time>
      </trkpt>
      <trkpt lat="48.04831" lon="7.01201">
        <ele>1267</ele>
        <time>2018-02-14T10:43:01Z</time>
      </trkpt>
      <trkpt lat="48.04842" lon="7.01211">
        <ele>1264</ele>
        <time>2018-02-14T10:43:12Z</time>
      </trkpt>
      <trkpt lat="48.04845" lon="7.01217">
        <ele>1263</ele>
        <time>2018-02-14T10:43:16Z</time>
      </trkpt>
      <trkpt lat="48.0485" lon="7.01228">
        <ele>1260</ele>
        <time>2018-02-14T10:43:26Z</time>
      </trkpt>
      <trkpt lat="48.04866" lon="7.01269">
        <ele>1258</ele>
        <time>2018-02-14T10:43:56Z</time>
      </trkpt>
      <trkpt lat="48.04879" lon="7.01298">
        <ele>1258</ele>
        <time>2018-02-14T10:44:17Z</time>
      </trkpt>
      <trkpt lat="48.04881" lon="7.01305">
        <ele>1258</ele>
        <time>2018-02-14T10:44:21Z</time>
      </trkpt>
      <trkpt lat="48.04883" lon="7.01311">
        <ele>1257</ele>
        <time>2018-02-14T10:44:25Z</time>
      </trkpt>
      <trkpt lat="48.04896" lon="7.01351">
        <ele>1266</ele>
        <time>2018-02-14T10:44:58Z</time>
      </trkpt>
      <trkpt lat="48.04896" lon="7.01343">
        <ele>1267</ele>
        <time>2018-02-14T10:45:00Z</time>
      </trkpt>
      <trkpt lat="48.04905" lon="7.01338">
        <ele>1259</ele>
        <time>2018-02-14T10:45:12Z</time>
      </trkpt>
      <trkpt lat="48.04909" lon="7.01338">
        <ele>1257</ele>
        <time>2018-02-14T10:45:16Z</time>
      </trkpt>
      <trkpt lat="48.0491" lon="7.01344">
        <ele>1257</ele>
        <time>2018-02-14T10:45:21Z</time>
      </trkpt>
      <trkpt lat="48.04911" lon="7.01351">
        <ele>1256</ele>
        <time>2018-02-14T10:45:28Z</time>
      </trkpt>
      <trkpt lat="48.04916" lon="7.01377">
        <ele>1255</ele>
        <time>2018-02-14T10:45:48Z</time>
      </trkpt>
      <trkpt lat="48.0492" lon="7.01379">
        <ele>1255</ele>
        <time>2018-02-14T10:45:55Z</time>
      </trkpt>
      <trkpt lat="48.04921" lon="7.01386">
        <ele>1255</ele>
        <time>2018-02-14T10:46:01Z</time>
      </trkpt>
      <trkpt lat="48.0492" lon="7.01392">
        <ele>1255</ele>
        <time>2018-02-14T10:46:07Z</time>
      </trkpt>
      <trkpt lat="48.04921" lon="7.014">
        <ele>1256</ele>
        <time>2018-02-14T10:46:13Z</time>
      </trkpt>
      <trkpt lat="48.04917" lon="7.01403">
        <ele>1256</ele>
        <time>2018-02-14T10:46:20Z</time>
      </trkpt>
      <trkpt lat="48.04915" lon="7.01409">
        <ele>1255</ele>
        <time>2018-02-14T10:46:25Z</time>
      </trkpt>
      <trkpt lat="48.04911" lon="7.01412">
        <ele>1254</ele>
        <time>2018-02-14T10:46:33Z</time>
      </trkpt>
      <trkpt lat="48.04908" lon="7.01418">
        <ele>1252</ele>
        <time>2018-02-14T10:46:38Z</time>
      </trkpt>
      <trkpt lat="48.04904" lon="7.01419">
        <ele>1253</ele>
        <time>2018-02-14T10:46:47Z</time>
      </trkpt>
      <trkpt lat="48.04905" lon="7.01426">
        <ele>1257</ele>
        <time>2018-02-14T10:49:20Z</time>
      </trkpt>
      <trkpt lat="48.04904" lon="7.01433">
        <ele>1256</ele>
        <time>2018-02-14T10:49:25Z</time>
      </trkpt>
      <trkpt lat="48.04908" lon="7.01466">
        <ele>1268</ele>
        <time>2018-02-14T10:49:59Z</time>
      </trkpt>
      <trkpt lat="48.0491" lon="7.01473">
        <ele>1264</ele>
        <time>2018-02-14T10:50:04Z</time>
      </trkpt>
      <trkpt lat="48.0491" lon="7.01479">
        <ele>1261</ele>
        <time>2018-02-14T10:50:09Z</time>
      </trkpt>
      <trkpt lat="48.04906" lon="7.01483">
        <ele>1260</ele>
        <time>2018-02-14T10:50:16Z</time>
      </trkpt>
      <trkpt lat="48.04904" lon="7.01488">
        <ele>1260</ele>
        <time>2018-02-14T10:50:23Z</time>
      </trkpt>
      <trkpt lat="48.04902" lon="7.01495">
        <ele>1259</ele>
        <time>2018-02-14T10:50:30Z</time>
      </trkpt>
      <trkpt lat="48.04907" lon="7.01499">
        <ele>1260</ele>
        <time>2018-02-14T10:50:36Z</time>
      </trkpt>
      <trkpt lat="48.04911" lon="7.01502">
        <ele>1257</ele>
        <time>2018-02-14T10:50:41Z</time>
      </trkpt>
      <trkpt lat="48.04926" lon="7.01516">
        <ele>1248</ele>
        <time>2018-02-14T10:51:12Z</time>
      </trkpt>
      <trkpt lat="48.04951" lon="7.0153">
        <ele>1247</ele>
        <time>2018-02-14T10:51:39Z</time>
      </trkpt>
      <trkpt lat="48.04955" lon="7.01535">
        <ele>1244</ele>
        <time>2018-02-14T10:51:46Z</time>
      </trkpt>
      <trkpt lat="48.04977" lon="7.01548">
        <ele>1247</ele>
        <time>2018-02-14T10:52:10Z</time>
      </trkpt>
      <trkpt lat="48.04985" lon="7.01551">
        <ele>1245</ele>
        <time>2018-02-14T10:53:51Z</time>
      </trkpt>
      <trkpt lat="48.0499" lon="7.01551">
        <ele>1244</ele>
        <time>2018-02-14T10:54:00Z</time>
      </trkpt>
      <trkpt lat="48.05056" lon="7.01564">
        <ele>1240</ele>
        <time>2018-02-14T10:55:01Z</time>
      </trkpt>
      <trkpt lat="48.05062" lon="7.01573">
        <ele>1239</ele>
        <time>2018-02-14T10:55:06Z</time>
      </trkpt>
      <trkpt lat="48.05069" lon="7.01578">
        <ele>1236</ele>
        <time>2018-02-14T10:55:13Z</time>
      </trkpt>
      <trkpt lat="48.05073" lon="7.01584">
        <ele>1236</ele>
        <time>2018-02-14T10:55:22Z</time>
      </trkpt>
      <trkpt lat="48.05076" lon="7.0159">
        <ele>1241</ele>
        <time>2018-02-14T10:55:27Z</time>
      </trkpt>
      <trkpt lat="48.05077" lon="7.01596">
        <ele>1242</ele>
        <time>2018-02-14T10:55:33Z</time>
      </trkpt>
      <trkpt lat="48.05077" lon="7.01603">
        <ele>1244</ele>
        <time>2018-02-14T10:55:38Z</time>
      </trkpt>
      <trkpt lat="48.05079" lon="7.0161">
        <ele>1245</ele>
        <time>2018-02-14T10:55:43Z</time>
      </trkpt>
      <trkpt lat="48.05082" lon="7.01623">
        <ele>1244</ele>
        <time>2018-02-14T10:55:53Z</time>
      </trkpt>
      <trkpt lat="48.05086" lon="7.01627">
        <ele>1244</ele>
        <time>2018-02-14T10:55:59Z</time>
      </trkpt>
      <trkpt lat="48.05089" lon="7.01633">
        <ele>1242</ele>
        <time>2018-02-14T10:56:03Z</time>
      </trkpt>
      <trkpt lat="48.05088" lon="7.01639">
        <ele>1241</ele>
        <time>2018-02-14T10:56:10Z</time>
      </trkpt>
      <trkpt lat="48.0509" lon="7.0166">
        <ele>1238</ele>
        <time>2018-02-14T10:56:24Z</time>
      </trkpt>
      <trkpt lat="48.05094" lon="7.01673">
        <ele>1237</ele>
        <time>2018-02-14T10:56:37Z</time>
      </trkpt>
      <trkpt lat="48.05097" lon="7.01695">
        <ele>1238</ele>
        <time>2018-02-14T10:56:54Z</time>
      </trkpt>
      <trkpt lat="48.051" lon="7.017">
        <ele>1238</ele>
        <time>2018-02-14T10:56:59Z</time>
      </trkpt>
      <trkpt lat="48.05119" lon="7.01709">
        <ele>1238</ele>
        <time>2018-02-14T10:57:18Z</time>
      </trkpt>
      <trkpt lat="48.05144" lon="7.01734">
        <ele>1236</ele>
        <time>2018-02-14T10:57:46Z</time>
      </trkpt>
      <trkpt lat="48.05148" lon="7.01737">
        <ele>1235</ele>
        <time>2018-02-14T10:57:50Z</time>
      </trkpt>
      <trkpt lat="48.05169" lon="7.01754">
        <ele>1232</ele>
        <time>2018-02-14T10:58:14Z</time>
      </trkpt>
      <trkpt lat="48.05174" lon="7.01765">
        <ele>1232</ele>
        <time>2018-02-14T10:58:23Z</time>
      </trkpt>
      <trkpt lat="48.05175" lon="7.01778">
        <ele>1233</ele>
        <time>2018-02-14T10:58:32Z</time>
      </trkpt>
      <trkpt lat="48.05174" lon="7.01785">
        <ele>1235</ele>
        <time>2018-02-14T10:58:36Z</time>
      </trkpt>
      <trkpt lat="48.05173" lon="7.01791">
        <ele>1235</ele>
        <time>2018-02-14T10:58:41Z</time>
      </trkpt>
      <trkpt lat="48.0517" lon="7.01825">
        <ele>1226</ele>
        <time>2018-02-14T10:59:06Z</time>
      </trkpt>
      <trkpt lat="48.0517" lon="7.01831">
        <ele>1226</ele>
        <time>2018-02-14T10:59:11Z</time>
      </trkpt>
      <trkpt lat="48.05168" lon="7.01861">
        <ele>1225</ele>
        <time>2018-02-14T10:59:26Z</time>
      </trkpt>
      <trkpt lat="48.05171" lon="7.01945">
        <ele>1251</ele>
        <time>2018-02-14T11:00:03Z</time>
      </trkpt>
      <trkpt lat="48.05177" lon="7.01945">
        <ele>1253</ele>
        <time>2018-02-14T11:00:08Z</time>
      </trkpt>
      <trkpt lat="48.05199" lon="7.01976">
        <ele>1236</ele>
        <time>2018-02-14T11:00:34Z</time>
      </trkpt>
      <trkpt lat="48.05199" lon="7.01984">
        <ele>1234</ele>
        <time>2018-02-14T11:00:38Z</time>
      </trkpt>
      <trkpt lat="48.05203" lon="7.01997">
        <ele>1234</ele>
        <time>2018-02-14T11:00:46Z</time>
      </trkpt>
      <trkpt lat="48.05213" lon="7.02029">
        <ele>1231</ele>
        <time>2018-02-14T11:01:06Z</time>
      </trkpt>
      <trkpt lat="48.05215" lon="7.02035">
        <ele>1230</ele>
        <time>2018-02-14T11:01:10Z</time>
      </trkpt>
      <trkpt lat="48.05219" lon="7.02039">
        <ele>1231</ele>
        <time>2018-02-14T11:01:15Z</time>
      </trkpt>
      <trkpt lat="48.05235" lon="7.02051">
        <ele>1231</ele>
        <time>2018-02-14T11:01:32Z</time>
      </trkpt>
      <trkpt lat="48.05238" lon="7.02055">
        <ele>1231</ele>
        <time>2018-02-14T11:01:36Z</time>
      </trkpt>
      <trkpt lat="48.05243" lon="7.02059">
        <ele>1232</ele>
        <time>2018-02-14T11:01:40Z</time>
      </trkpt>
      <trkpt lat="48.05252" lon="7.02059">
        <ele>1230</ele>
        <time>2018-02-14T11:01:51Z</time>
      </trkpt>
      <trkpt lat="48.05256" lon="7.02062">
        <ele>1230</ele>
        <time>2018-02-14T11:01:55Z</time>
      </trkpt>
      <trkpt lat="48.05281" lon="7.0209">
        <ele>1232</ele>
        <time>2018-02-14T11:02:25Z</time>
      </trkpt>
      <trkpt lat="48.05292" lon="7.02102">
        <ele>1231</ele>
        <time>2018-02-14T11:02:38Z</time>
      </trkpt>
      <trkpt lat="48.05314" lon="7.02137">
        <ele>1231</ele>
        <time>2018-02-14T11:03:10Z</time>
      </trkpt>
      <trkpt lat="48.05335" lon="7.02164">
        <ele>1231</ele>
        <time>2018-02-14T11:03:42Z</time>
      </trkpt>
      <trkpt lat="48.05362" lon="7.02192">
        <ele>1233</ele>
        <time>2018-02-14T11:04:16Z</time>
      </trkpt>
      <trkpt lat="48.05371" lon="7.02207">
        <ele>1234</ele>
        <time>2018-02-14T11:04:30Z</time>
      </trkpt>
      <trkpt lat="48.0539" lon="7.02236">
        <ele>1238</ele>
        <time>2018-02-14T11:05:01Z</time>
      </trkpt>
      <trkpt lat="48.05395" lon="7.02241">
        <ele>1238</ele>
        <time>2018-02-14T11:05:03Z</time>
      </trkpt>
      <trkpt lat="48.05418" lon="7.02274">
        <ele>1236</ele>
        <time>2018-02-14T11:05:33Z</time>
      </trkpt>
      <trkpt lat="48.0542" lon="7.02279">
        <ele>1236</ele>
        <time>2018-02-14T11:05:37Z</time>
      </trkpt>
      <trkpt lat="48.05428" lon="7.02296">
        <ele>1234</ele>
        <time>2018-02-14T11:05:51Z</time>
      </trkpt>
      <trkpt lat="48.05429" lon="7.02302">
        <ele>1234</ele>
        <time>2018-02-14T11:05:55Z</time>
      </trkpt>
      <trkpt lat="48.05426" lon="7.02305">
        <ele>1237</ele>
        <time>2018-02-14T11:06:01Z</time>
      </trkpt>
      <trkpt lat="48.05421" lon="7.02305">
        <ele>1237</ele>
        <time>2018-02-14T11:07:00Z</time>
      </trkpt>
      <trkpt lat="48.05424" lon="7.02306">
        <ele>1236</ele>
        <time>2018-02-14T11:09:30Z</time>
      </trkpt>
      <trkpt lat="48.05422" lon="7.02311">
        <ele>1236</ele>
        <time>2018-02-14T11:09:39Z</time>
      </trkpt>
      <trkpt lat="48.05425" lon="7.02316">
        <ele>1236</ele>
        <time>2018-02-14T11:10:15Z</time>
      </trkpt>
      <trkpt lat="48.05412" lon="7.02346">
        <ele>1230</ele>
        <time>2018-02-14T11:10:41Z</time>
      </trkpt>
      <trkpt lat="48.05409" lon="7.0235">
        <ele>1229</ele>
        <time>2018-02-14T11:10:44Z</time>
      </trkpt>
      <trkpt lat="48.05398" lon="7.02363">
        <ele>1235</ele>
        <time>2018-02-14T11:11:00Z</time>
      </trkpt>
      <trkpt lat="48.05395" lon="7.02369">
        <ele>1235</ele>
        <time>2018-02-14T11:11:05Z</time>
      </trkpt>
      <trkpt lat="48.05395" lon="7.02376">
        <ele>1235</ele>
        <time>2018-02-14T11:11:08Z</time>
      </trkpt>
      <trkpt lat="48.05391" lon="7.02379">
        <ele>1235</ele>
        <time>2018-02-14T11:11:11Z</time>
      </trkpt>
      <trkpt lat="48.05389" lon="7.02386">
        <ele>1231</ele>
        <time>2018-02-14T11:11:16Z</time>
      </trkpt>
      <trkpt lat="48.05384" lon="7.02392">
        <ele>1228</ele>
        <time>2018-02-14T11:11:20Z</time>
      </trkpt>
      <trkpt lat="48.05381" lon="7.02399">
        <ele>1227</ele>
        <time>2018-02-14T11:11:24Z</time>
      </trkpt>
      <trkpt lat="48.05377" lon="7.02402">
        <ele>1225</ele>
        <time>2018-02-14T11:11:28Z</time>
      </trkpt>
      <trkpt lat="48.05372" lon="7.02415">
        <ele>1226</ele>
        <time>2018-02-14T11:11:35Z</time>
      </trkpt>
      <trkpt lat="48.05363" lon="7.02448">
        <ele>1224</ele>
        <time>2018-02-14T11:12:00Z</time>
      </trkpt>
      <trkpt lat="48.05362" lon="7.02454">
        <ele>1224</ele>
        <time>2018-02-14T11:12:04Z</time>
      </trkpt>
      <trkpt lat="48.05358" lon="7.02466">
        <ele>1225</ele>
        <time>2018-02-14T11:12:11Z</time>
      </trkpt>
      <trkpt lat="48.05361" lon="7.02481">
        <ele>1223</ele>
        <time>2018-02-14T11:12:19Z</time>
      </trkpt>
      <trkpt lat="48.05349" lon="7.02526">
        <ele>1221</ele>
        <time>2018-02-14T11:12:45Z</time>
      </trkpt>
      <trkpt lat="48.05348" lon="7.02533">
        <ele>1219</ele>
        <time>2018-02-14T11:12:50Z</time>
      </trkpt>
      <trkpt lat="48.05341" lon="7.02533">
        <ele>1218</ele>
        <time>2018-02-14T11:12:56Z</time>
      </trkpt>
      <trkpt lat="48.05339" lon="7.02542">
        <ele>1214</ele>
        <time>2018-02-14T11:13:02Z</time>
      </trkpt>
      <trkpt lat="48.05338" lon="7.0255">
        <ele>1214</ele>
        <time>2018-02-14T11:13:06Z</time>
      </trkpt>
      <trkpt lat="48.05346" lon="7.02577">
        <ele>1218</ele>
        <time>2018-02-14T11:13:20Z</time>
      </trkpt>
      <trkpt lat="48.05345" lon="7.02583">
        <ele>1218</ele>
        <time>2018-02-14T11:13:23Z</time>
      </trkpt>
      <trkpt lat="48.0534" lon="7.02585">
        <ele>1216</ele>
        <time>2018-02-14T11:13:27Z</time>
      </trkpt>
      <trkpt lat="48.05336" lon="7.02588">
        <ele>1215</ele>
        <time>2018-02-14T11:13:32Z</time>
      </trkpt>
      <trkpt lat="48.05332" lon="7.02592">
        <ele>1214</ele>
        <time>2018-02-14T11:13:37Z</time>
      </trkpt>
      <trkpt lat="48.05327" lon="7.02589">
        <ele>1213</ele>
        <time>2018-02-14T11:13:41Z</time>
      </trkpt>
      <trkpt lat="48.05325" lon="7.02583">
        <ele>1212</ele>
        <time>2018-02-14T11:13:50Z</time>
      </trkpt>
      <trkpt lat="48.05324" lon="7.02577">
        <ele>1210</ele>
        <time>2018-02-14T11:19:44Z</time>
      </trkpt>
      <trkpt lat="48.05312" lon="7.02602">
        <ele>1225</ele>
        <time>2018-02-14T12:31:57Z</time>
      </trkpt>
      <trkpt lat="48.05329" lon="7.02575">
        <ele>1214</ele>
        <time>2018-02-14T12:32:22Z</time>
      </trkpt>
      <trkpt lat="48.05326" lon="7.02581">
        <ele>1214</ele>
        <time>2018-02-14T12:32:35Z</time>
      </trkpt>
      <trkpt lat="48.05323" lon="7.02584">
        <ele>1212</ele>
        <time>2018-02-14T12:33:49Z</time>
      </trkpt>
      <trkpt lat="48.05319" lon="7.02587">
        <ele>1212</ele>
        <time>2018-02-14T12:33:56Z</time>
      </trkpt>
      <trkpt lat="48.05316" lon="7.02582">
        <ele>1213</ele>
        <time>2018-02-14T12:35:41Z</time>
      </trkpt>
      <trkpt lat="48.05311" lon="7.0257">
        <ele>1211</ele>
        <time>2018-02-14T12:35:53Z</time>
      </trkpt>
      <trkpt lat="48.05308" lon="7.02567">
        <ele>1208</ele>
        <time>2018-02-14T12:36:00Z</time>
      </trkpt>
      <trkpt lat="48.05304" lon="7.02554">
        <ele>1205</ele>
        <time>2018-02-14T12:36:15Z</time>
      </trkpt>
      <trkpt lat="48.053" lon="7.02551">
        <ele>1206</ele>
        <time>2018-02-14T12:36:25Z</time>
      </trkpt>
      <trkpt lat="48.05297" lon="7.02545">
        <ele>1204</ele>
        <time>2018-02-14T12:36:30Z</time>
      </trkpt>
      <trkpt lat="48.0529" lon="7.02538">
        <ele>1204</ele>
        <time>2018-02-14T12:36:43Z</time>
      </trkpt>
      <trkpt lat="48.05287" lon="7.02533">
        <ele>1204</ele>
        <time>2018-02-14T12:36:50Z</time>
      </trkpt>
      <trkpt lat="48.05274" lon="7.02525">
        <ele>1205</ele>
        <time>2018-02-14T12:37:04Z</time>
      </trkpt>
      <trkpt lat="48.05262" lon="7.02525">
        <ele>1206</ele>
        <time>2018-02-14T12:37:18Z</time>
      </trkpt>
      <trkpt lat="48.05255" lon="7.02528">
        <ele>1207</ele>
        <time>2018-02-14T12:37:23Z</time>
      </trkpt>
      <trkpt lat="48.05251" lon="7.02533">
        <ele>1207</ele>
        <time>2018-02-14T12:37:28Z</time>
      </trkpt>
      <trkpt lat="48.05246" lon="7.02531">
        <ele>1209</ele>
        <time>2018-02-14T12:37:35Z</time>
      </trkpt>
      <trkpt lat="48.05242" lon="7.02527">
        <ele>1208</ele>
        <time>2018-02-14T12:37:41Z</time>
      </trkpt>
      <trkpt lat="48.05239" lon="7.02524">
        <ele>1206</ele>
        <time>2018-02-14T12:37:47Z</time>
      </trkpt>
      <trkpt lat="48.05225" lon="7.02523">
        <ele>1204</ele>
        <time>2018-02-14T12:38:02Z</time>
      </trkpt>
      <trkpt lat="48.05221" lon="7.02522">
        <ele>1206</ele>
        <time>2018-02-14T12:38:36Z</time>
      </trkpt>
      <trkpt lat="48.05217" lon="7.02523">
        <ele>1205</ele>
        <time>2018-02-14T12:38:41Z</time>
      </trkpt>
      <trkpt lat="48.05208" lon="7.02524">
        <ele>1204</ele>
        <time>2018-02-14T12:38:51Z</time>
      </trkpt>
      <trkpt lat="48.05204" lon="7.02523">
        <ele>1204</ele>
        <time>2018-02-14T12:38:55Z</time>
      </trkpt>
      <trkpt lat="48.052" lon="7.0252">
        <ele>1203</ele>
        <time>2018-02-14T12:39:00Z</time>
      </trkpt>
      <trkpt lat="48.05196" lon="7.02522">
        <ele>1202</ele>
        <time>2018-02-14T12:39:04Z</time>
      </trkpt>
      <trkpt lat="48.05192" lon="7.02523">
        <ele>1202</ele>
        <time>2018-02-14T12:39:09Z</time>
      </trkpt>
      <trkpt lat="48.05183" lon="7.02524">
        <ele>1201</ele>
        <time>2018-02-14T12:39:18Z</time>
      </trkpt>
      <trkpt lat="48.05178" lon="7.02522">
        <ele>1200</ele>
        <time>2018-02-14T12:39:22Z</time>
      </trkpt>
      <trkpt lat="48.05169" lon="7.02521">
        <ele>1200</ele>
        <time>2018-02-14T12:39:34Z</time>
      </trkpt>
      <trkpt lat="48.05165" lon="7.02517">
        <ele>1201</ele>
        <time>2018-02-14T12:39:41Z</time>
      </trkpt>
      <trkpt lat="48.05161" lon="7.02517">
        <ele>1201</ele>
        <time>2018-02-14T12:39:45Z</time>
      </trkpt>
      <trkpt lat="48.05158" lon="7.02513">
        <ele>1200</ele>
        <time>2018-02-14T12:39:49Z</time>
      </trkpt>
      <trkpt lat="48.0514" lon="7.02505">
        <ele>1199</ele>
        <time>2018-02-14T12:40:12Z</time>
      </trkpt>
      <trkpt lat="48.05136" lon="7.02503">
        <ele>1200</ele>
        <time>2018-02-14T12:40:17Z</time>
      </trkpt>
      <trkpt lat="48.05128" lon="7.02498">
        <ele>1199</ele>
        <time>2018-02-14T12:40:28Z</time>
      </trkpt>
      <trkpt lat="48.05124" lon="7.02494">
        <ele>1198</ele>
        <time>2018-02-14T12:40:36Z</time>
      </trkpt>
      <trkpt lat="48.0512" lon="7.02489">
        <ele>1198</ele>
        <time>2018-02-14T12:40:42Z</time>
      </trkpt>
      <trkpt lat="48.05116" lon="7.02487">
        <ele>1198</ele>
        <time>2018-02-14T12:40:48Z</time>
      </trkpt>
      <trkpt lat="48.05093" lon="7.02465">
        <ele>1202</ele>
        <time>2018-02-14T12:41:21Z</time>
      </trkpt>
      <trkpt lat="48.05088" lon="7.02463">
        <ele>1200</ele>
        <time>2018-02-14T12:41:26Z</time>
      </trkpt>
      <trkpt lat="48.05076" lon="7.02456">
        <ele>1201</ele>
        <time>2018-02-14T12:41:39Z</time>
      </trkpt>
      <trkpt lat="48.05068" lon="7.02452">
        <ele>1204</ele>
        <time>2018-02-14T12:41:47Z</time>
      </trkpt>
      <trkpt lat="48.05062" lon="7.02442">
        <ele>1208</ele>
        <time>2018-02-14T12:42:03Z</time>
      </trkpt>
      <trkpt lat="48.05048" lon="7.02426">
        <ele>1209</ele>
        <time>2018-02-14T12:42:20Z</time>
      </trkpt>
      <trkpt lat="48.0504" lon="7.02409">
        <ele>1209</ele>
        <time>2018-02-14T12:42:41Z</time>
      </trkpt>
      <trkpt lat="48.0502" lon="7.02373">
        <ele>1216</ele>
        <time>2018-02-14T12:43:15Z</time>
      </trkpt>
      <trkpt lat="48.05018" lon="7.02366">
        <ele>1219</ele>
        <time>2018-02-14T12:43:24Z</time>
      </trkpt>
      <trkpt lat="48.05014" lon="7.02363">
        <ele>1219</ele>
        <time>2018-02-14T12:43:30Z</time>
      </trkpt>
      <trkpt lat="48.05006" lon="7.02357">
        <ele>1221</ele>
        <time>2018-02-14T12:43:44Z</time>
      </trkpt>
      <trkpt lat="48.05001" lon="7.02355">
        <ele>1222</ele>
        <time>2018-02-14T12:43:52Z</time>
      </trkpt>
      <trkpt lat="48.04999" lon="7.02349">
        <ele>1226</ele>
        <time>2018-02-14T12:43:59Z</time>
      </trkpt>
      <trkpt lat="48.04994" lon="7.02348">
        <ele>1226</ele>
        <time>2018-02-14T12:44:54Z</time>
      </trkpt>
      <trkpt lat="48.04989" lon="7.02353">
        <ele>1226</ele>
        <time>2018-02-14T12:44:59Z</time>
      </trkpt>
      <trkpt lat="48.04985" lon="7.02356">
        <ele>1221</ele>
        <time>2018-02-14T12:45:43Z</time>
      </trkpt>
      <trkpt lat="48.04983" lon="7.02361">
        <ele>1222</ele>
        <time>2018-02-14T12:46:43Z</time>
      </trkpt>
      <trkpt lat="48.04986" lon="7.02358">
        <ele>1225</ele>
        <time>2018-02-14T12:51:02Z</time>
      </trkpt>
      <trkpt lat="48.0499" lon="7.02355">
        <ele>1227</ele>
        <time>2018-02-14T12:51:06Z</time>
      </trkpt>
      <trkpt lat="48.04994" lon="7.02352">
        <ele>1223</ele>
        <time>2018-02-14T12:51:14Z</time>
      </trkpt>
      <trkpt lat="48.04999" lon="7.02349">
        <ele>1222</ele>
        <time>2018-02-14T12:51:27Z</time>
      </trkpt>
      <trkpt lat="48.05002" lon="7.02344">
        <ele>1222</ele>
        <time>2018-02-14T12:51:31Z</time>
      </trkpt>
      <trkpt lat="48.05007" lon="7.02343">
        <ele>1220</ele>
        <time>2018-02-14T12:51:34Z</time>
      </trkpt>
      <trkpt lat="48.05015" lon="7.02336">
        <ele>1219</ele>
        <time>2018-02-14T12:51:43Z</time>
      </trkpt>
      <trkpt lat="48.05019" lon="7.02332">
        <ele>1220</ele>
        <time>2018-02-14T12:51:47Z</time>
      </trkpt>
      <trkpt lat="48.05022" lon="7.02328">
        <ele>1221</ele>
        <time>2018-02-14T12:51:51Z</time>
      </trkpt>
      <trkpt lat="48.05028" lon="7.02326">
        <ele>1218</ele>
        <time>2018-02-14T12:51:58Z</time>
      </trkpt>
      <trkpt lat="48.0504" lon="7.02316">
        <ele>1220</ele>
        <time>2018-02-14T12:52:14Z</time>
      </trkpt>
      <trkpt lat="48.05043" lon="7.02312">
        <ele>1221</ele>
        <time>2018-02-14T12:52:20Z</time>
      </trkpt>
      <trkpt lat="48.05046" lon="7.02308">
        <ele>1224</ele>
        <time>2018-02-14T12:52:42Z</time>
      </trkpt>
      <trkpt lat="48.05051" lon="7.02306">
        <ele>1222</ele>
        <time>2018-02-14T12:52:47Z</time>
      </trkpt>
      <trkpt lat="48.05058" lon="7.02296">
        <ele>1219</ele>
        <time>2018-02-14T12:52:56Z</time>
      </trkpt>
      <trkpt lat="48.05061" lon="7.02292">
        <ele>1216</ele>
        <time>2018-02-14T12:53:01Z</time>
      </trkpt>
      <trkpt lat="48.05063" lon="7.02279">
        <ele>1215</ele>
        <time>2018-02-14T12:53:11Z</time>
      </trkpt>
      <trkpt lat="48.05065" lon="7.02271">
        <ele>1217</ele>
        <time>2018-02-14T12:53:18Z</time>
      </trkpt>
      <trkpt lat="48.05068" lon="7.02264">
        <ele>1217</ele>
        <time>2018-02-14T12:53:22Z</time>
      </trkpt>
      <trkpt lat="48.05067" lon="7.02257">
        <ele>1219</ele>
        <time>2018-02-14T12:53:27Z</time>
      </trkpt>
      <trkpt lat="48.0507" lon="7.02252">
        <ele>1219</ele>
        <time>2018-02-14T12:53:31Z</time>
      </trkpt>
      <trkpt lat="48.05073" lon="7.02247">
        <ele>1218</ele>
        <time>2018-02-14T12:53:36Z</time>
      </trkpt>
      <trkpt lat="48.05074" lon="7.02241">
        <ele>1219</ele>
        <time>2018-02-14T12:53:39Z</time>
      </trkpt>
      <trkpt lat="48.05075" lon="7.02235">
        <ele>1221</ele>
        <time>2018-02-14T12:53:44Z</time>
      </trkpt>
      <trkpt lat="48.0508" lon="7.02222">
        <ele>1220</ele>
        <time>2018-02-14T12:53:54Z</time>
      </trkpt>
      <trkpt lat="48.05082" lon="7.02214">
        <ele>1221</ele>
        <time>2018-02-14T12:53:59Z</time>
      </trkpt>
      <trkpt lat="48.05085" lon="7.02209">
        <ele>1221</ele>
        <time>2018-02-14T12:54:05Z</time>
      </trkpt>
      <trkpt lat="48.05096" lon="7.02163">
        <ele>1220</ele>
        <time>2018-02-14T12:54:36Z</time>
      </trkpt>
      <trkpt lat="48.05098" lon="7.02157">
        <ele>1220</ele>
        <time>2018-02-14T12:54:40Z</time>
      </trkpt>
      <trkpt lat="48.05099" lon="7.02151">
        <ele>1222</ele>
        <time>2018-02-14T12:54:45Z</time>
      </trkpt>
      <trkpt lat="48.05103" lon="7.02147">
        <ele>1222</ele>
        <time>2018-02-14T12:54:51Z</time>
      </trkpt>
      <trkpt lat="48.05113" lon="7.02124">
        <ele>1220</ele>
        <time>2018-02-14T12:55:06Z</time>
      </trkpt>
      <trkpt lat="48.0512" lon="7.02117">
        <ele>1218</ele>
        <time>2018-02-14T12:55:14Z</time>
      </trkpt>
      <trkpt lat="48.05122" lon="7.02109">
        <ele>1219</ele>
        <time>2018-02-14T12:55:19Z</time>
      </trkpt>
      <trkpt lat="48.0513" lon="7.02095">
        <ele>1222</ele>
        <time>2018-02-14T12:55:31Z</time>
      </trkpt>
      <trkpt lat="48.05132" lon="7.02087">
        <ele>1221</ele>
        <time>2018-02-14T12:55:37Z</time>
      </trkpt>
      <trkpt lat="48.0513" lon="7.0208">
        <ele>1223</ele>
        <time>2018-02-14T12:55:42Z</time>
      </trkpt>
      <trkpt lat="48.05129" lon="7.02073">
        <ele>1223</ele>
        <time>2018-02-14T12:55:47Z</time>
      </trkpt>
      <trkpt lat="48.05132" lon="7.02067">
        <ele>1222</ele>
        <time>2018-02-14T12:55:53Z</time>
      </trkpt>
      <trkpt lat="48.05137" lon="7.02061">
        <ele>1223</ele>
        <time>2018-02-14T12:55:59Z</time>
      </trkpt>
      <trkpt lat="48.0514" lon="7.02055">
        <ele>1224</ele>
        <time>2018-02-14T12:56:04Z</time>
      </trkpt>
      <trkpt lat="48.05145" lon="7.02044">
        <ele>1226</ele>
        <time>2018-02-14T12:56:11Z</time>
      </trkpt>
      <trkpt lat="48.05147" lon="7.02037">
        <ele>1224</ele>
        <time>2018-02-14T12:56:16Z</time>
      </trkpt>
      <trkpt lat="48.05152" lon="7.02033">
        <ele>1223</ele>
        <time>2018-02-14T12:56:20Z</time>
      </trkpt>
      <trkpt lat="48.05153" lon="7.02027">
        <ele>1223</ele>
        <time>2018-02-14T12:56:24Z</time>
      </trkpt>
      <trkpt lat="48.05159" lon="7.02015">
        <ele>1224</ele>
        <time>2018-02-14T12:56:36Z</time>
      </trkpt>
      <trkpt lat="48.05158" lon="7.02007">
        <ele>1224</ele>
        <time>2018-02-14T12:56:44Z</time>
      </trkpt>
      <trkpt lat="48.05156" lon="7.01999">
        <ele>1227</ele>
        <time>2018-02-14T12:57:01Z</time>
      </trkpt>
      <trkpt lat="48.0516" lon="7.01994">
        <ele>1227</ele>
        <time>2018-02-14T12:57:07Z</time>
      </trkpt>
      <trkpt lat="48.0516" lon="7.01985">
        <ele>1228</ele>
        <time>2018-02-14T12:57:11Z</time>
      </trkpt>
      <trkpt lat="48.05158" lon="7.01979">
        <ele>1228</ele>
        <time>2018-02-14T12:57:15Z</time>
      </trkpt>
      <trkpt lat="48.05153" lon="7.01978">
        <ele>1231</ele>
        <time>2018-02-14T12:57:20Z</time>
      </trkpt>
      <trkpt lat="48.05151" lon="7.01967">
        <ele>1233</ele>
        <time>2018-02-14T12:57:31Z</time>
      </trkpt>
      <trkpt lat="48.05148" lon="7.01958">
        <ele>1227</ele>
        <time>2018-02-14T12:57:37Z</time>
      </trkpt>
      <trkpt lat="48.05144" lon="7.01945">
        <ele>1227</ele>
        <time>2018-02-14T12:57:47Z</time>
      </trkpt>
      <trkpt lat="48.05145" lon="7.01933">
        <ele>1228</ele>
        <time>2018-02-14T12:57:56Z</time>
      </trkpt>
      <trkpt lat="48.05144" lon="7.01922">
        <ele>1226</ele>
        <time>2018-02-14T12:58:10Z</time>
      </trkpt>
      <trkpt lat="48.0514" lon="7.01911">
        <ele>1226</ele>
        <time>2018-02-14T12:58:23Z</time>
      </trkpt>
      <trkpt lat="48.05139" lon="7.01896">
        <ele>1224</ele>
        <time>2018-02-14T12:58:31Z</time>
      </trkpt>
      <trkpt lat="48.05135" lon="7.01885">
        <ele>1223</ele>
        <time>2018-02-14T12:58:38Z</time>
      </trkpt>
      <trkpt lat="48.0513" lon="7.01879">
        <ele>1224</ele>
        <time>2018-02-14T12:58:44Z</time>
      </trkpt>
      <trkpt lat="48.05124" lon="7.0187">
        <ele>1229</ele>
        <time>2018-02-14T12:58:50Z</time>
      </trkpt>
      <trkpt lat="48.05125" lon="7.01864">
        <ele>1228</ele>
        <time>2018-02-14T12:59:00Z</time>
      </trkpt>
      <trkpt lat="48.05122" lon="7.01858">
        <ele>1224</ele>
        <time>2018-02-14T12:59:23Z</time>
      </trkpt>
      <trkpt lat="48.05118" lon="7.01858">
        <ele>1226</ele>
        <time>2018-02-14T13:00:01Z</time>
      </trkpt>
      <trkpt lat="48.05113" lon="7.01854">
        <ele>1228</ele>
        <time>2018-02-14T13:00:06Z</time>
      </trkpt>
      <trkpt lat="48.05108" lon="7.01851">
        <ele>1229</ele>
        <time>2018-02-14T13:00:13Z</time>
      </trkpt>
      <trkpt lat="48.0511" lon="7.01843">
        <ele>1228</ele>
        <time>2018-02-14T13:00:21Z</time>
      </trkpt>
      <trkpt lat="48.05108" lon="7.01836">
        <ele>1227</ele>
        <time>2018-02-14T13:00:29Z</time>
      </trkpt>
      <trkpt lat="48.05107" lon="7.0183">
        <ele>1227</ele>
        <time>2018-02-14T13:00:33Z</time>
      </trkpt>
      <trkpt lat="48.05103" lon="7.01819">
        <ele>1228</ele>
        <time>2018-02-14T13:00:45Z</time>
      </trkpt>
      <trkpt lat="48.05097" lon="7.01808">
        <ele>1229</ele>
        <time>2018-02-14T13:00:56Z</time>
      </trkpt>
      <trkpt lat="48.05092" lon="7.01798">
        <ele>1232</ele>
        <time>2018-02-14T13:01:06Z</time>
      </trkpt>
      <trkpt lat="48.05072" lon="7.01779">
        <ele>1232</ele>
        <time>2018-02-14T13:01:42Z</time>
      </trkpt>
      <trkpt lat="48.0505" lon="7.01772">
        <ele>1236</ele>
        <time>2018-02-14T13:02:03Z</time>
      </trkpt>
      <trkpt lat="48.05045" lon="7.01771">
        <ele>1237</ele>
        <time>2018-02-14T13:02:09Z</time>
      </trkpt>
      <trkpt lat="48.0504" lon="7.01763">
        <ele>1238</ele>
        <time>2018-02-14T13:02:17Z</time>
      </trkpt>
      <trkpt lat="48.05031" lon="7.01757">
        <ele>1236</ele>
        <time>2018-02-14T13:02:26Z</time>
      </trkpt>
      <trkpt lat="48.05024" lon="7.01755">
        <ele>1236</ele>
        <time>2018-02-14T13:02:32Z</time>
      </trkpt>
      <trkpt lat="48.05013" lon="7.01746">
        <ele>1240</ele>
        <time>2018-02-14T13:02:44Z</time>
      </trkpt>
      <trkpt lat="48.05007" lon="7.01745">
        <ele>1242</ele>
        <time>2018-02-14T13:02:52Z</time>
      </trkpt>
      <trkpt lat="48.05002" lon="7.01745">
        <ele>1243</ele>
        <time>2018-02-14T13:02:55Z</time>
      </trkpt>
      <trkpt lat="48.04997" lon="7.01744">
        <ele>1245</ele>
        <time>2018-02-14T13:03:03Z</time>
      </trkpt>
      <trkpt lat="48.04992" lon="7.0174">
        <ele>1245</ele>
        <time>2018-02-14T13:03:09Z</time>
      </trkpt>
      <trkpt lat="48.04986" lon="7.01736">
        <ele>1242</ele>
        <time>2018-02-14T13:03:15Z</time>
      </trkpt>
      <trkpt lat="48.04967" lon="7.0172">
        <ele>1245</ele>
        <time>2018-02-14T13:03:36Z</time>
      </trkpt>
      <trkpt lat="48.04963" lon="7.01715">
        <ele>1246</ele>
        <time>2018-02-14T13:03:41Z</time>
      </trkpt>
      <trkpt lat="48.04942" lon="7.01694">
        <ele>1242</ele>
        <time>2018-02-14T13:04:08Z</time>
      </trkpt>
      <trkpt lat="48.04939" lon="7.01689">
        <ele>1244</ele>
        <time>2018-02-14T13:04:13Z</time>
      </trkpt>
      <trkpt lat="48.04936" lon="7.01684">
        <ele>1244</ele>
        <time>2018-02-14T13:04:16Z</time>
      </trkpt>
      <trkpt lat="48.0492" lon="7.0166">
        <ele>1240</ele>
        <time>2018-02-14T13:04:48Z</time>
      </trkpt>
      <trkpt lat="48.04912" lon="7.01648">
        <ele>1241</ele>
        <time>2018-02-14T13:05:01Z</time>
      </trkpt>
      <trkpt lat="48.04907" lon="7.01642">
        <ele>1246</ele>
        <time>2018-02-14T13:05:06Z</time>
      </trkpt>
      <trkpt lat="48.04912" lon="7.01628">
        <ele>1244</ele>
        <time>2018-02-14T13:05:20Z</time>
      </trkpt>
      <trkpt lat="48.04907" lon="7.01624">
        <ele>1244</ele>
        <time>2018-02-14T13:05:25Z</time>
      </trkpt>
      <trkpt lat="48.04901" lon="7.01623">
        <ele>1245</ele>
        <time>2018-02-14T13:05:30Z</time>
      </trkpt>
      <trkpt lat="48.0489" lon="7.01619">
        <ele>1249</ele>
        <time>2018-02-14T13:05:44Z</time>
      </trkpt>
      <trkpt lat="48.04886" lon="7.01616">
        <ele>1249</ele>
        <time>2018-02-14T13:05:49Z</time>
      </trkpt>
      <trkpt lat="48.04881" lon="7.01615">
        <ele>1252</ele>
        <time>2018-02-14T13:05:55Z</time>
      </trkpt>
      <trkpt lat="48.04883" lon="7.01599">
        <ele>1253</ele>
        <time>2018-02-14T13:06:18Z</time>
      </trkpt>
      <trkpt lat="48.04878" lon="7.01594">
        <ele>1251</ele>
        <time>2018-02-14T13:06:23Z</time>
      </trkpt>
      <trkpt lat="48.04875" lon="7.0159">
        <ele>1252</ele>
        <time>2018-02-14T13:06:28Z</time>
      </trkpt>
      <trkpt lat="48.04871" lon="7.01585">
        <ele>1254</ele>
        <time>2018-02-14T13:06:38Z</time>
      </trkpt>
      <trkpt lat="48.04866" lon="7.01579">
        <ele>1250</ele>
        <time>2018-02-14T13:06:48Z</time>
      </trkpt>
      <trkpt lat="48.04861" lon="7.01578">
        <ele>1251</ele>
        <time>2018-02-14T13:06:53Z</time>
      </trkpt>
      <trkpt lat="48.04854" lon="7.0157">
        <ele>1252</ele>
        <time>2018-02-14T13:07:04Z</time>
      </trkpt>
      <trkpt lat="48.04842" lon="7.01561">
        <ele>1259</ele>
        <time>2018-02-14T13:07:23Z</time>
      </trkpt>
      <trkpt lat="48.04836" lon="7.01558">
        <ele>1260</ele>
        <time>2018-02-14T13:07:33Z</time>
      </trkpt>
      <trkpt lat="48.04828" lon="7.01549">
        <ele>1262</ele>
        <time>2018-02-14T13:07:53Z</time>
      </trkpt>
      <trkpt lat="48.04824" lon="7.01546">
        <ele>1263</ele>
        <time>2018-02-14T13:07:57Z</time>
      </trkpt>
      <trkpt lat="48.0482" lon="7.01543">
        <ele>1265</ele>
        <time>2018-02-14T13:08:01Z</time>
      </trkpt>
      <trkpt lat="48.04819" lon="7.01537">
        <ele>1265</ele>
        <time>2018-02-14T13:08:10Z</time>
      </trkpt>
      <trkpt lat="48.04815" lon="7.01534">
        <ele>1266</ele>
        <time>2018-02-14T13:08:13Z</time>
      </trkpt>
      <trkpt lat="48.04803" lon="7.01527">
        <ele>1266</ele>
        <time>2018-02-14T13:08:29Z</time>
      </trkpt>
      <trkpt lat="48.04774" lon="7.01528">
        <ele>1272</ele>
        <time>2018-02-14T13:09:02Z</time>
      </trkpt>
      <trkpt lat="48.04765" lon="7.01526">
        <ele>1271</ele>
        <time>2018-02-14T13:09:15Z</time>
      </trkpt>
      <trkpt lat="48.0476" lon="7.01526">
        <ele>1273</ele>
        <time>2018-02-14T13:09:20Z</time>
      </trkpt>
      <trkpt lat="48.04758" lon="7.0152">
        <ele>1272</ele>
        <time>2018-02-14T13:09:28Z</time>
      </trkpt>
      <trkpt lat="48.0475" lon="7.01511">
        <ele>1274</ele>
        <time>2018-02-14T13:09:37Z</time>
      </trkpt>
      <trkpt lat="48.0474" lon="7.01497">
        <ele>1273</ele>
        <time>2018-02-14T13:09:51Z</time>
      </trkpt>
      <trkpt lat="48.04723" lon="7.01482">
        <ele>1273</ele>
        <time>2018-02-14T13:10:14Z</time>
      </trkpt>
      <trkpt lat="48.04716" lon="7.01475">
        <ele>1272</ele>
        <time>2018-02-14T13:10:23Z</time>
      </trkpt>
      <trkpt lat="48.04708" lon="7.01469">
        <ele>1274</ele>
        <time>2018-02-14T13:10:32Z</time>
      </trkpt>
      <trkpt lat="48.04705" lon="7.01464">
        <ele>1274</ele>
        <time>2018-02-14T13:10:37Z</time>
      </trkpt>
      <trkpt lat="48.04705" lon="7.01457">
        <ele>1274</ele>
        <time>2018-02-14T13:10:42Z</time>
      </trkpt>
      <trkpt lat="48.04702" lon="7.01452">
        <ele>1275</ele>
        <time>2018-02-14T13:10:46Z</time>
      </trkpt>
      <trkpt lat="48.04695" lon="7.01436">
        <ele>1276</ele>
        <time>2018-02-14T13:10:59Z</time>
      </trkpt>
      <trkpt lat="48.04692" lon="7.0143">
        <ele>1276</ele>
        <time>2018-02-14T13:11:02Z</time>
      </trkpt>
      <trkpt lat="48.04685" lon="7.01422">
        <ele>1275</ele>
        <time>2018-02-14T13:11:08Z</time>
      </trkpt>
      <trkpt lat="48.04687" lon="7.01416">
        <ele>1275</ele>
        <time>2018-02-14T13:11:12Z</time>
      </trkpt>
      <trkpt lat="48.04684" lon="7.0141">
        <ele>1274</ele>
        <time>2018-02-14T13:11:19Z</time>
      </trkpt>
      <trkpt lat="48.04657" lon="7.01379">
        <ele>1275</ele>
        <time>2018-02-14T13:11:50Z</time>
      </trkpt>
      <trkpt lat="48.04652" lon="7.01377">
        <ele>1276</ele>
        <time>2018-02-14T13:11:54Z</time>
      </trkpt>
      <trkpt lat="48.04648" lon="7.01372">
        <ele>1275</ele>
        <time>2018-02-14T13:11:58Z</time>
      </trkpt>
      <trkpt lat="48.04626" lon="7.01359">
        <ele>1278</ele>
        <time>2018-02-14T13:12:21Z</time>
      </trkpt>
      <trkpt lat="48.04625" lon="7.01353">
        <ele>1278</ele>
        <time>2018-02-14T13:13:12Z</time>
      </trkpt>
      <trkpt lat="48.04594" lon="7.01331">
        <ele>1278</ele>
        <time>2018-02-14T13:13:44Z</time>
      </trkpt>
      <trkpt lat="48.0459" lon="7.01328">
        <ele>1277</ele>
        <time>2018-02-14T13:13:52Z</time>
      </trkpt>
      <trkpt lat="48.04569" lon="7.01311">
        <ele>1279</ele>
        <time>2018-02-14T13:14:15Z</time>
      </trkpt>
      <trkpt lat="48.04544" lon="7.01294">
        <ele>1281</ele>
        <time>2018-02-14T13:14:45Z</time>
      </trkpt>
      <trkpt lat="48.04541" lon="7.01289">
        <ele>1282</ele>
        <time>2018-02-14T13:14:50Z</time>
      </trkpt>
      <trkpt lat="48.04533" lon="7.01286">
        <ele>1284</ele>
        <time>2018-02-14T13:14:57Z</time>
      </trkpt>
      <trkpt lat="48.0453" lon="7.01281">
        <ele>1285</ele>
        <time>2018-02-14T13:15:01Z</time>
      </trkpt>
      <trkpt lat="48.04525" lon="7.01278">
        <ele>1285</ele>
        <time>2018-02-14T13:15:07Z</time>
      </trkpt>
      <trkpt lat="48.04522" lon="7.01274">
        <ele>1285</ele>
        <time>2018-02-14T13:15:11Z</time>
      </trkpt>
      <trkpt lat="48.04518" lon="7.01271">
        <ele>1286</ele>
        <time>2018-02-14T13:15:16Z</time>
      </trkpt>
      <trkpt lat="48.04516" lon="7.01266">
        <ele>1286</ele>
        <time>2018-02-14T13:15:21Z</time>
      </trkpt>
      <trkpt lat="48.04512" lon="7.01264">
        <ele>1286</ele>
        <time>2018-02-14T13:15:26Z</time>
      </trkpt>
      <trkpt lat="48.04505" lon="7.01257">
        <ele>1286</ele>
        <time>2018-02-14T13:15:34Z</time>
      </trkpt>
      <trkpt lat="48.04497" lon="7.01253">
        <ele>1290</ele>
        <time>2018-02-14T13:15:42Z</time>
      </trkpt>
      <trkpt lat="48.04484" lon="7.01245">
        <ele>1290</ele>
        <time>2018-02-14T13:15:54Z</time>
      </trkpt>
      <trkpt lat="48.0448" lon="7.01244">
        <ele>1290</ele>
        <time>2018-02-14T13:15:58Z</time>
      </trkpt>
      <trkpt lat="48.04472" lon="7.01236">
        <ele>1292</ele>
        <time>2018-02-14T13:16:08Z</time>
      </trkpt>
      <trkpt lat="48.04468" lon="7.01236">
        <ele>1294</ele>
        <time>2018-02-14T13:16:12Z</time>
      </trkpt>
      <trkpt lat="48.04464" lon="7.01233">
        <ele>1294</ele>
        <time>2018-02-14T13:16:17Z</time>
      </trkpt>
      <trkpt lat="48.04458" lon="7.01224">
        <ele>1296</ele>
        <time>2018-02-14T13:16:27Z</time>
      </trkpt>
      <trkpt lat="48.04454" lon="7.01222">
        <ele>1297</ele>
        <time>2018-02-14T13:16:31Z</time>
      </trkpt>
      <trkpt lat="48.04451" lon="7.01218">
        <ele>1297</ele>
        <time>2018-02-14T13:16:35Z</time>
      </trkpt>
      <trkpt lat="48.04425" lon="7.01203">
        <ele>1298</ele>
        <time>2018-02-14T13:17:02Z</time>
      </trkpt>
      <trkpt lat="48.04417" lon="7.01197">
        <ele>1296</ele>
        <time>2018-02-14T13:17:11Z</time>
      </trkpt>
      <trkpt lat="48.04408" lon="7.01195">
        <ele>1295</ele>
        <time>2018-02-14T13:17:21Z</time>
      </trkpt>
      <trkpt lat="48.04404" lon="7.01191">
        <ele>1295</ele>
        <time>2018-02-14T13:17:25Z</time>
      </trkpt>
      <trkpt lat="48.0437" lon="7.01177">
        <ele>1292</ele>
        <time>2018-02-14T13:17:56Z</time>
      </trkpt>
      <trkpt lat="48.04347" lon="7.01169">
        <ele>1296</ele>
        <time>2018-02-14T13:18:21Z</time>
      </trkpt>
      <trkpt lat="48.04342" lon="7.01167">
        <ele>1296</ele>
        <time>2018-02-14T13:18:26Z</time>
      </trkpt>
      <trkpt lat="48.04339" lon="7.01164">
        <ele>1296</ele>
        <time>2018-02-14T13:18:29Z</time>
      </trkpt>
      <trkpt lat="48.04335" lon="7.01162">
        <ele>1296</ele>
        <time>2018-02-14T13:18:32Z</time>
      </trkpt>
      <trkpt lat="48.04331" lon="7.01162">
        <ele>1295</ele>
        <time>2018-02-14T13:18:37Z</time>
      </trkpt>
      <trkpt lat="48.04303" lon="7.0115">
        <ele>1298</ele>
        <time>2018-02-14T13:19:07Z</time>
      </trkpt>
      <trkpt lat="48.04285" lon="7.01145">
        <ele>1300</ele>
        <time>2018-02-14T13:19:24Z</time>
      </trkpt>
      <trkpt lat="48.04276" lon="7.01139">
        <ele>1299</ele>
        <time>2018-02-14T13:19:38Z</time>
      </trkpt>
      <trkpt lat="48.04272" lon="7.01139">
        <ele>1299</ele>
        <time>2018-02-14T13:20:07Z</time>
      </trkpt>
      <trkpt lat="48.04268" lon="7.0114">
        <ele>1300</ele>
        <time>2018-02-14T13:20:11Z</time>
      </trkpt>
      <trkpt lat="48.04256" lon="7.01129">
        <ele>1300</ele>
        <time>2018-02-14T13:21:08Z</time>
      </trkpt>
      <trkpt lat="48.04255" lon="7.01124">
        <ele>1300</ele>
        <time>2018-02-14T13:21:19Z</time>
      </trkpt>
      <trkpt lat="48.04251" lon="7.01121">
        <ele>1300</ele>
        <time>2018-02-14T13:22:07Z</time>
      </trkpt>
      <trkpt lat="48.04247" lon="7.0112">
        <ele>1300</ele>
        <time>2018-02-14T13:28:19Z</time>
      </trkpt>
      <trkpt lat="48.04243" lon="7.01122">
        <ele>1300</ele>
        <time>2018-02-14T13:28:28Z</time>
      </trkpt>
      <trkpt lat="48.04234" lon="7.01118">
        <ele>1295</ele>
        <time>2018-02-14T13:28:36Z</time>
      </trkpt>
      <trkpt lat="48.04211" lon="7.01114">
        <ele>1293</ele>
        <time>2018-02-14T13:28:57Z</time>
      </trkpt>
      <trkpt lat="48.04206" lon="7.01114">
        <ele>1294</ele>
        <time>2018-02-14T13:29:04Z</time>
      </trkpt>
      <trkpt lat="48.04192" lon="7.01114">
        <ele>1294</ele>
        <time>2018-02-14T13:29:15Z</time>
      </trkpt>
      <trkpt lat="48.04189" lon="7.0111">
        <ele>1293</ele>
        <time>2018-02-14T13:29:18Z</time>
      </trkpt>
      <trkpt lat="48.04179" lon="7.01106">
        <ele>1290</ele>
        <time>2018-02-14T13:29:28Z</time>
      </trkpt>
      <trkpt lat="48.04175" lon="7.01103">
        <ele>1289</ele>
        <time>2018-02-14T13:29:32Z</time>
      </trkpt>
      <trkpt lat="48.04171" lon="7.01104">
        <ele>1289</ele>
        <time>2018-02-14T13:29:37Z</time>
      </trkpt>
      <trkpt lat="48.04167" lon="7.01108">
        <ele>1290</ele>
        <time>2018-02-14T13:29:47Z</time>
      </trkpt>
      <trkpt lat="48.04163" lon="7.0111">
        <ele>1291</ele>
        <time>2018-02-14T13:29:51Z</time>
      </trkpt>
      <trkpt lat="48.04158" lon="7.01111">
        <ele>1294</ele>
        <time>2018-02-14T13:29:59Z</time>
      </trkpt>
      <trkpt lat="48.04153" lon="7.01122">
        <ele>1297</ele>
        <time>2018-02-14T13:30:12Z</time>
      </trkpt>
      <trkpt lat="48.04141" lon="7.0114">
        <ele>1302</ele>
        <time>2018-02-14T13:30:44Z</time>
      </trkpt>
      <trkpt lat="48.04135" lon="7.01158">
        <ele>1305</ele>
        <time>2018-02-14T13:31:04Z</time>
      </trkpt>
      <trkpt lat="48.04133" lon="7.01163">
        <ele>1306</ele>
        <time>2018-02-14T13:31:11Z</time>
      </trkpt>
      <trkpt lat="48.04129" lon="7.01168">
        <ele>1305</ele>
        <time>2018-02-14T13:31:18Z</time>
      </trkpt>
      <trkpt lat="48.04117" lon="7.01196">
        <ele>1308</ele>
        <time>2018-02-14T13:31:53Z</time>
      </trkpt>
      <trkpt lat="48.04107" lon="7.0121">
        <ele>1310</ele>
        <time>2018-02-14T13:32:13Z</time>
      </trkpt>
      <trkpt lat="48.04104" lon="7.01216">
        <ele>1312</ele>
        <time>2018-02-14T13:32:20Z</time>
      </trkpt>
      <trkpt lat="48.041" lon="7.01218">
        <ele>1313</ele>
        <time>2018-02-14T13:32:27Z</time>
      </trkpt>
      <trkpt lat="48.04093" lon="7.01236">
        <ele>1315</ele>
        <time>2018-02-14T13:32:44Z</time>
      </trkpt>
      <trkpt lat="48.04074" lon="7.01265">
        <ele>1321</ele>
        <time>2018-02-14T13:33:18Z</time>
      </trkpt>
      <trkpt lat="48.04072" lon="7.01272">
        <ele>1321</ele>
        <time>2018-02-14T13:33:24Z</time>
      </trkpt>
      <trkpt lat="48.04069" lon="7.01277">
        <ele>1322</ele>
        <time>2018-02-14T13:33:30Z</time>
      </trkpt>
      <trkpt lat="48.04064" lon="7.0128">
        <ele>1321</ele>
        <time>2018-02-14T13:33:37Z</time>
      </trkpt>
      <trkpt lat="48.04061" lon="7.01285">
        <ele>1321</ele>
        <time>2018-02-14T13:33:42Z</time>
      </trkpt>
      <trkpt lat="48.04057" lon="7.01285">
        <ele>1321</ele>
        <time>2018-02-14T13:33:48Z</time>
      </trkpt>
      <trkpt lat="48.04053" lon="7.01287">
        <ele>1322</ele>
        <time>2018-02-14T13:33:53Z</time>
      </trkpt>
      <trkpt lat="48.04049" lon="7.01292">
        <ele>1323</ele>
        <time>2018-02-14T13:33:57Z</time>
      </trkpt>
      <trkpt lat="48.04046" lon="7.01295">
        <ele>1323</ele>
        <time>2018-02-14T13:34:01Z</time>
      </trkpt>
      <trkpt lat="48.04042" lon="7.01298">
        <ele>1323</ele>
        <time>2018-02-14T13:34:06Z</time>
      </trkpt>
      <trkpt lat="48.04038" lon="7.01298">
        <ele>1322</ele>
        <time>2018-02-14T13:34:11Z</time>
      </trkpt>
      <trkpt lat="48.04034" lon="7.01302">
        <ele>1323</ele>
        <time>2018-02-14T13:34:16Z</time>
      </trkpt>
      <trkpt lat="48.0403" lon="7.01304">
        <ele>1325</ele>
        <time>2018-02-14T13:34:21Z</time>
      </trkpt>
      <trkpt lat="48.04009" lon="7.01328">
        <ele>1331</ele>
        <time>2018-02-14T13:34:51Z</time>
      </trkpt>
      <trkpt lat="48.04005" lon="7.01333">
        <ele>1332</ele>
        <time>2018-02-14T13:34:57Z</time>
      </trkpt>
      <trkpt lat="48.03983" lon="7.01355">
        <ele>1333</ele>
        <time>2018-02-14T13:35:28Z</time>
      </trkpt>
      <trkpt lat="48.03976" lon="7.01364">
        <ele>1335</ele>
        <time>2018-02-14T13:35:37Z</time>
      </trkpt>
      <trkpt lat="48.0395" lon="7.01389">
        <ele>1334</ele>
        <time>2018-02-14T13:36:10Z</time>
      </trkpt>
      <trkpt lat="48.03947" lon="7.01394">
        <ele>1334</ele>
        <time>2018-02-14T13:36:16Z</time>
      </trkpt>
      <trkpt lat="48.03942" lon="7.01397">
        <ele>1334</ele>
        <time>2018-02-14T13:36:22Z</time>
      </trkpt>
      <trkpt lat="48.03937" lon="7.01402">
        <ele>1334</ele>
        <time>2018-02-14T13:36:26Z</time>
      </trkpt>
      <trkpt lat="48.03912" lon="7.01423">
        <ele>1342</ele>
        <time>2018-02-14T13:36:56Z</time>
      </trkpt>
      <trkpt lat="48.03906" lon="7.01432">
        <ele>1342</ele>
        <time>2018-02-14T13:37:05Z</time>
      </trkpt>
      <trkpt lat="48.03901" lon="7.01436">
        <ele>1344</ele>
        <time>2018-02-14T13:37:10Z</time>
      </trkpt>
      <trkpt lat="48.03894" lon="7.01445">
        <ele>1346</ele>
        <time>2018-02-14T13:37:20Z</time>
      </trkpt>
      <trkpt lat="48.0389" lon="7.01444">
        <ele>1346</ele>
        <time>2018-02-14T13:37:25Z</time>
      </trkpt>
      <trkpt lat="48.03886" lon="7.01447">
        <ele>1347</ele>
        <time>2018-02-14T13:37:29Z</time>
      </trkpt>
      <trkpt lat="48.03865" lon="7.01476">
        <ele>1347</ele>
        <time>2018-02-14T13:37:59Z</time>
      </trkpt>
      <trkpt lat="48.03861" lon="7.01477">
        <ele>1348</ele>
        <time>2018-02-14T13:38:03Z</time>
      </trkpt>
      <trkpt lat="48.03857" lon="7.01482">
        <ele>1348</ele>
        <time>2018-02-14T13:38:07Z</time>
      </trkpt>
      <trkpt lat="48.03853" lon="7.01485">
        <ele>1350</ele>
        <time>2018-02-14T13:38:12Z</time>
      </trkpt>
      <trkpt lat="48.03849" lon="7.01486">
        <ele>1350</ele>
        <time>2018-02-14T13:38:20Z</time>
      </trkpt>
      <trkpt lat="48.03845" lon="7.01489">
        <ele>1350</ele>
        <time>2018-02-14T13:38:23Z</time>
      </trkpt>
      <trkpt lat="48.03838" lon="7.01497">
        <ele>1351</ele>
        <time>2018-02-14T13:38:32Z</time>
      </trkpt>
      <trkpt lat="48.03834" lon="7.01501">
        <ele>1351</ele>
        <time>2018-02-14T13:38:36Z</time>
      </trkpt>
      <trkpt lat="48.03822" lon="7.0151">
        <ele>1352</ele>
        <time>2018-02-14T13:38:50Z</time>
      </trkpt>
      <trkpt lat="48.03818" lon="7.0151">
        <ele>1354</ele>
        <time>2018-02-14T13:38:57Z</time>
      </trkpt>
      <trkpt lat="48.03795" lon="7.01512">
        <ele>1358</ele>
        <time>2018-02-14T13:39:25Z</time>
      </trkpt>
      <trkpt lat="48.03786" lon="7.01511">
        <ele>1359</ele>
        <time>2018-02-14T13:39:35Z</time>
      </trkpt>
      <trkpt lat="48.03773" lon="7.01514">
        <ele>1358</ele>
        <time>2018-02-14T13:39:48Z</time>
      </trkpt>
      <trkpt lat="48.0377" lon="7.01519">
        <ele>1358</ele>
        <time>2018-02-14T13:39:53Z</time>
      </trkpt>
      <trkpt lat="48.03757" lon="7.01524">
        <ele>1358</ele>
        <time>2018-02-14T13:40:07Z</time>
      </trkpt>
      <trkpt lat="48.03743" lon="7.01538">
        <ele>1361</ele>
        <time>2018-02-14T13:40:30Z</time>
      </trkpt>
      <trkpt lat="48.03741" lon="7.01544">
        <ele>1362</ele>
        <time>2018-02-14T13:40:35Z</time>
      </trkpt>
      <trkpt lat="48.03738" lon="7.01548">
        <ele>1361</ele>
        <time>2018-02-14T13:42:10Z</time>
      </trkpt>
      <trkpt lat="48.03738" lon="7.01556">
        <ele>1359</ele>
        <time>2018-02-14T13:45:25Z</time>
      </trkpt>
      <trkpt lat="48.03738" lon="7.01563">
        <ele>1360</ele>
        <time>2018-02-14T13:45:31Z</time>
      </trkpt>
      <trkpt lat="48.03742" lon="7.01573">
        <ele>1362</ele>
        <time>2018-02-14T13:45:43Z</time>
      </trkpt>
      <trkpt lat="48.03743" lon="7.0158">
        <ele>1362</ele>
        <time>2018-02-14T13:45:47Z</time>
      </trkpt>
      <trkpt lat="48.03743" lon="7.01586">
        <ele>1364</ele>
        <time>2018-02-14T13:45:51Z</time>
      </trkpt>
      <trkpt lat="48.03747" lon="7.01599">
        <ele>1364</ele>
        <time>2018-02-14T13:46:07Z</time>
      </trkpt>
      <trkpt lat="48.03749" lon="7.01613">
        <ele>1364</ele>
        <time>2018-02-14T13:46:17Z</time>
      </trkpt>
      <trkpt lat="48.03753" lon="7.01618">
        <ele>1364</ele>
        <time>2018-02-14T13:46:23Z</time>
      </trkpt>
      <trkpt lat="48.03755" lon="7.01624">
        <ele>1364</ele>
        <time>2018-02-14T13:46:27Z</time>
      </trkpt>
      <trkpt lat="48.03755" lon="7.0163">
        <ele>1363</ele>
        <time>2018-02-14T13:46:35Z</time>
      </trkpt>
      <trkpt lat="48.0376" lon="7.01641">
        <ele>1361</ele>
        <time>2018-02-14T13:46:47Z</time>
      </trkpt>
      <trkpt lat="48.03765" lon="7.01641">
        <ele>1356</ele>
        <time>2018-02-14T13:46:54Z</time>
      </trkpt>
      <trkpt lat="48.03767" lon="7.01636">
        <ele>1361</ele>
        <time>2018-02-14T13:49:27Z</time>
      </trkpt>
      <trkpt lat="48.03768" lon="7.0163">
        <ele>1359</ele>
        <time>2018-02-14T13:50:11Z</time>
      </trkpt>
      <trkpt lat="48.03777" lon="7.01624">
        <ele>1359</ele>
        <time>2018-02-14T13:50:22Z</time>
      </trkpt>
      <trkpt lat="48.03793" lon="7.01611">
        <ele>1359</ele>
        <time>2018-02-14T13:50:43Z</time>
      </trkpt>
      <trkpt lat="48.03803" lon="7.01598">
        <ele>1358</ele>
        <time>2018-02-14T13:52:14Z</time>
      </trkpt>
      <trkpt lat="48.03807" lon="7.01594">
        <ele>1357</ele>
        <time>2018-02-14T13:52:20Z</time>
      </trkpt>
      <trkpt lat="48.0381" lon="7.01589">
        <ele>1357</ele>
        <time>2018-02-14T13:52:27Z</time>
      </trkpt>
      <trkpt lat="48.03813" lon="7.01583">
        <ele>1355</ele>
        <time>2018-02-14T13:52:34Z</time>
      </trkpt>
      <trkpt lat="48.03815" lon="7.01576">
        <ele>1354</ele>
        <time>2018-02-14T13:52:39Z</time>
      </trkpt>
      <trkpt lat="48.03819" lon="7.01572">
        <ele>1350</ele>
        <time>2018-02-14T13:52:46Z</time>
      </trkpt>
      <trkpt lat="48.03822" lon="7.01566">
        <ele>1350</ele>
        <time>2018-02-14T13:52:52Z</time>
      </trkpt>
      <trkpt lat="48.03824" lon="7.01558">
        <ele>1350</ele>
        <time>2018-02-14T13:52:57Z</time>
      </trkpt>
      <trkpt lat="48.03828" lon="7.01556">
        <ele>1349</ele>
        <time>2018-02-14T13:53:00Z</time>
      </trkpt>
      <trkpt lat="48.03831" lon="7.01544">
        <ele>1348</ele>
        <time>2018-02-14T13:53:08Z</time>
      </trkpt>
      <trkpt lat="48.03832" lon="7.01529">
        <ele>1351</ele>
        <time>2018-02-14T13:53:17Z</time>
      </trkpt>
      <trkpt lat="48.03835" lon="7.01524">
        <ele>1350</ele>
        <time>2018-02-14T13:53:23Z</time>
      </trkpt>
      <trkpt lat="48.03836" lon="7.01517">
        <ele>1350</ele>
        <time>2018-02-14T13:53:27Z</time>
      </trkpt>
      <trkpt lat="48.03839" lon="7.01512">
        <ele>1350</ele>
        <time>2018-02-14T13:53:31Z</time>
      </trkpt>
      <trkpt lat="48.03839" lon="7.01505">
        <ele>1348</ele>
        <time>2018-02-14T13:53:38Z</time>
      </trkpt>
      <trkpt lat="48.03842" lon="7.01484">
        <ele>1345</ele>
        <time>2018-02-14T13:53:54Z</time>
      </trkpt>
      <trkpt lat="48.03834" lon="7.01464">
        <ele>1343</ele>
        <time>2018-02-14T13:54:09Z</time>
      </trkpt>
      <trkpt lat="48.0383" lon="7.01462">
        <ele>1345</ele>
        <time>2018-02-14T13:54:12Z</time>
      </trkpt>
      <trkpt lat="48.03811" lon="7.01415">
        <ele>1345</ele>
        <time>2018-02-14T13:54:46Z</time>
      </trkpt>
      <trkpt lat="48.03806" lon="7.01401">
        <ele>1342</ele>
        <time>2018-02-14T13:54:56Z</time>
      </trkpt>
      <trkpt lat="48.03803" lon="7.01398">
        <ele>1342</ele>
        <time>2018-02-14T13:55:00Z</time>
      </trkpt>
      <trkpt lat="48.03801" lon="7.01392">
        <ele>1342</ele>
        <time>2018-02-14T13:55:06Z</time>
      </trkpt>
      <trkpt lat="48.03799" lon="7.01386">
        <ele>1343</ele>
        <time>2018-02-14T13:55:11Z</time>
      </trkpt>
      <trkpt lat="48.03802" lon="7.01379">
        <ele>1342</ele>
        <time>2018-02-14T13:55:18Z</time>
      </trkpt>
      <trkpt lat="48.03804" lon="7.01372">
        <ele>1339</ele>
        <time>2018-02-14T13:55:24Z</time>
      </trkpt>
      <trkpt lat="48.03808" lon="7.01369">
        <ele>1339</ele>
        <time>2018-02-14T13:55:28Z</time>
      </trkpt>
      <trkpt lat="48.03812" lon="7.0137">
        <ele>1339</ele>
        <time>2018-02-14T13:55:33Z</time>
      </trkpt>
      <trkpt lat="48.03812" lon="7.01363">
        <ele>1339</ele>
        <time>2018-02-14T13:55:44Z</time>
      </trkpt>
      <trkpt lat="48.03815" lon="7.01359">
        <ele>1338</ele>
        <time>2018-02-14T13:55:50Z</time>
      </trkpt>
      <trkpt lat="48.0382" lon="7.01358">
        <ele>1338</ele>
        <time>2018-02-14T13:56:36Z</time>
      </trkpt>
      <trkpt lat="48.03828" lon="7.01351">
        <ele>1337</ele>
        <time>2018-02-14T13:56:46Z</time>
      </trkpt>
      <trkpt lat="48.03832" lon="7.01351">
        <ele>1336</ele>
        <time>2018-02-14T13:56:52Z</time>
      </trkpt>
      <trkpt lat="48.03837" lon="7.01346">
        <ele>1334</ele>
        <time>2018-02-14T13:57:00Z</time>
      </trkpt>
      <trkpt lat="48.03841" lon="7.01343">
        <ele>1332</ele>
        <time>2018-02-14T13:57:05Z</time>
      </trkpt>
      <trkpt lat="48.03845" lon="7.01343">
        <ele>1332</ele>
        <time>2018-02-14T13:57:09Z</time>
      </trkpt>
      <trkpt lat="48.03849" lon="7.01339">
        <ele>1330</ele>
        <time>2018-02-14T13:57:12Z</time>
      </trkpt>
      <trkpt lat="48.03853" lon="7.01338">
        <ele>1329</ele>
        <time>2018-02-14T13:57:15Z</time>
      </trkpt>
      <trkpt lat="48.03856" lon="7.01324">
        <ele>1328</ele>
        <time>2018-02-14T13:57:23Z</time>
      </trkpt>
      <trkpt lat="48.03861" lon="7.01314">
        <ele>1330</ele>
        <time>2018-02-14T13:57:31Z</time>
      </trkpt>
      <trkpt lat="48.0387" lon="7.01309">
        <ele>1329</ele>
        <time>2018-02-14T13:57:40Z</time>
      </trkpt>
      <trkpt lat="48.03873" lon="7.01302">
        <ele>1328</ele>
        <time>2018-02-14T13:57:45Z</time>
      </trkpt>
      <trkpt lat="48.03877" lon="7.01296">
        <ele>1328</ele>
        <time>2018-02-14T13:57:49Z</time>
      </trkpt>
      <trkpt lat="48.03882" lon="7.01285">
        <ele>1327</ele>
        <time>2018-02-14T13:57:56Z</time>
      </trkpt>
      <trkpt lat="48.03885" lon="7.01279">
        <ele>1327</ele>
        <time>2018-02-14T13:58:03Z</time>
      </trkpt>
      <trkpt lat="48.03889" lon="7.01276">
        <ele>1326</ele>
        <time>2018-02-14T13:58:14Z</time>
      </trkpt>
      <trkpt lat="48.03893" lon="7.01273">
        <ele>1324</ele>
        <time>2018-02-14T13:58:21Z</time>
      </trkpt>
      <trkpt lat="48.03897" lon="7.01272">
        <ele>1324</ele>
        <time>2018-02-14T13:58:29Z</time>
      </trkpt>
      <trkpt lat="48.03902" lon="7.01268">
        <ele>1323</ele>
        <time>2018-02-14T13:58:33Z</time>
      </trkpt>
      <trkpt lat="48.03906" lon="7.01265">
        <ele>1322</ele>
        <time>2018-02-14T13:58:41Z</time>
      </trkpt>
      <trkpt lat="48.03909" lon="7.01258">
        <ele>1324</ele>
        <time>2018-02-14T13:58:47Z</time>
      </trkpt>
      <trkpt lat="48.03912" lon="7.01252">
        <ele>1322</ele>
        <time>2018-02-14T13:58:50Z</time>
      </trkpt>
      <trkpt lat="48.03936" lon="7.0123">
        <ele>1321</ele>
        <time>2018-02-14T13:59:17Z</time>
      </trkpt>
      <trkpt lat="48.03941" lon="7.01231">
        <ele>1319</ele>
        <time>2018-02-14T13:59:21Z</time>
      </trkpt>
      <trkpt lat="48.03944" lon="7.01227">
        <ele>1317</ele>
        <time>2018-02-14T13:59:25Z</time>
      </trkpt>
      <trkpt lat="48.0395" lon="7.01224">
        <ele>1316</ele>
        <time>2018-02-14T13:59:29Z</time>
      </trkpt>
      <trkpt lat="48.03956" lon="7.01228">
        <ele>1313</ele>
        <time>2018-02-14T13:59:33Z</time>
      </trkpt>
      <trkpt lat="48.03974" lon="7.01213">
        <ele>1312</ele>
        <time>2018-02-14T13:59:53Z</time>
      </trkpt>
      <trkpt lat="48.03985" lon="7.01203">
        <ele>1311</ele>
        <time>2018-02-14T14:00:09Z</time>
      </trkpt>
      <trkpt lat="48.03994" lon="7.01198">
        <ele>1311</ele>
        <time>2018-02-14T14:00:20Z</time>
      </trkpt>
      <trkpt lat="48.04007" lon="7.0119">
        <ele>1309</ele>
        <time>2018-02-14T14:00:32Z</time>
      </trkpt>
      <trkpt lat="48.04032" lon="7.01168">
        <ele>1304</ele>
        <time>2018-02-14T14:00:59Z</time>
      </trkpt>
      <trkpt lat="48.0404" lon="7.01167">
        <ele>1302</ele>
        <time>2018-02-14T14:01:07Z</time>
      </trkpt>
      <trkpt lat="48.04071" lon="7.01139">
        <ele>1300</ele>
        <time>2018-02-14T14:01:42Z</time>
      </trkpt>
      <trkpt lat="48.04076" lon="7.01136">
        <ele>1299</ele>
        <time>2018-02-14T14:01:46Z</time>
      </trkpt>
      <trkpt lat="48.04079" lon="7.0113">
        <ele>1298</ele>
        <time>2018-02-14T14:01:51Z</time>
      </trkpt>
      <trkpt lat="48.04084" lon="7.0113">
        <ele>1298</ele>
        <time>2018-02-14T14:01:55Z</time>
      </trkpt>
      <trkpt lat="48.041" lon="7.01117">
        <ele>1296</ele>
        <time>2018-02-14T14:02:12Z</time>
      </trkpt>
      <trkpt lat="48.04105" lon="7.01115">
        <ele>1296</ele>
        <time>2018-02-14T14:02:18Z</time>
      </trkpt>
      <trkpt lat="48.0411" lon="7.01111">
        <ele>1297</ele>
        <time>2018-02-14T14:02:24Z</time>
      </trkpt>
      <trkpt lat="48.0413" lon="7.01099">
        <ele>1295</ele>
        <time>2018-02-14T14:02:45Z</time>
      </trkpt>
      <trkpt lat="48.04143" lon="7.0109">
        <ele>1293</ele>
        <time>2018-02-14T14:03:02Z</time>
      </trkpt>
      <trkpt lat="48.04148" lon="7.01088">
        <ele>1292</ele>
        <time>2018-02-14T14:03:09Z</time>
      </trkpt>
      <trkpt lat="48.0415" lon="7.01083">
        <ele>1292</ele>
        <time>2018-02-14T14:03:18Z</time>
      </trkpt>
      <trkpt lat="48.04167" lon="7.01075">
        <ele>1291</ele>
        <time>2018-02-14T14:03:48Z</time>
      </trkpt>
      <trkpt lat="48.04172" lon="7.01073">
        <ele>1290</ele>
        <time>2018-02-14T14:03:53Z</time>
      </trkpt>
      <trkpt lat="48.0418" lon="7.01066">
        <ele>1291</ele>
        <time>2018-02-14T14:04:05Z</time>
      </trkpt>
      <trkpt lat="48.04184" lon="7.01063">
        <ele>1291</ele>
        <time>2018-02-14T14:04:10Z</time>
      </trkpt>
      <trkpt lat="48.04188" lon="7.01059">
        <ele>1291</ele>
        <time>2018-02-14T14:04:15Z</time>
      </trkpt>
      <trkpt lat="48.04204" lon="7.01045">
        <ele>1294</ele>
        <time>2018-02-14T14:04:35Z</time>
      </trkpt>
      <trkpt lat="48.04209" lon="7.01046">
        <ele>1292</ele>
        <time>2018-02-14T14:04:39Z</time>
      </trkpt>
      <trkpt lat="48.04213" lon="7.01041">
        <ele>1292</ele>
        <time>2018-02-14T14:04:44Z</time>
      </trkpt>
      <trkpt lat="48.04225" lon="7.0103">
        <ele>1294</ele>
        <time>2018-02-14T14:04:59Z</time>
      </trkpt>
      <trkpt lat="48.0423" lon="7.01028">
        <ele>1294</ele>
        <time>2018-02-14T14:05:04Z</time>
      </trkpt>
      <trkpt lat="48.04232" lon="7.01023">
        <ele>1296</ele>
        <time>2018-02-14T14:05:08Z</time>
      </trkpt>
      <trkpt lat="48.04236" lon="7.01021">
        <ele>1297</ele>
        <time>2018-02-14T14:05:12Z</time>
      </trkpt>
      <trkpt lat="48.04241" lon="7.01019">
        <ele>1298</ele>
        <time>2018-02-14T14:05:17Z</time>
      </trkpt>
      <trkpt lat="48.04262" lon="7.01007">
        <ele>1296</ele>
        <time>2018-02-14T14:05:38Z</time>
      </trkpt>
      <trkpt lat="48.04266" lon="7.01004">
        <ele>1297</ele>
        <time>2018-02-14T14:05:42Z</time>
      </trkpt>
      <trkpt lat="48.04277" lon="7.0099">
        <ele>1297</ele>
        <time>2018-02-14T14:05:56Z</time>
      </trkpt>
      <trkpt lat="48.04281" lon="7.00984">
        <ele>1298</ele>
        <time>2018-02-14T14:06:00Z</time>
      </trkpt>
      <trkpt lat="48.04284" lon="7.00981">
        <ele>1301</ele>
        <time>2018-02-14T14:06:05Z</time>
      </trkpt>
      <trkpt lat="48.04289" lon="7.00983">
        <ele>1302</ele>
        <time>2018-02-14T14:06:12Z</time>
      </trkpt>
      <trkpt lat="48.04296" lon="7.00972">
        <ele>1303</ele>
        <time>2018-02-14T14:06:34Z</time>
      </trkpt>
      <trkpt lat="48.04301" lon="7.0097">
        <ele>1303</ele>
        <time>2018-02-14T14:06:42Z</time>
      </trkpt>
      <trkpt lat="48.04328" lon="7.00979">
        <ele>1305</ele>
        <time>2018-02-14T14:07:14Z</time>
      </trkpt>
      <trkpt lat="48.04333" lon="7.00979">
        <ele>1304</ele>
        <time>2018-02-14T14:07:20Z</time>
      </trkpt>
      <trkpt lat="48.04338" lon="7.00982">
        <ele>1303</ele>
        <time>2018-02-14T14:07:26Z</time>
      </trkpt>
      <trkpt lat="48.04343" lon="7.00981">
        <ele>1301</ele>
        <time>2018-02-14T14:07:32Z</time>
      </trkpt>
      <trkpt lat="48.04347" lon="7.00984">
        <ele>1300</ele>
        <time>2018-02-14T14:07:39Z</time>
      </trkpt>
      <trkpt lat="48.04357" lon="7.00988">
        <ele>1298</ele>
        <time>2018-02-14T14:07:50Z</time>
      </trkpt>
      <trkpt lat="48.04371" lon="7.00992">
        <ele>1295</ele>
        <time>2018-02-14T14:08:08Z</time>
      </trkpt>
      <trkpt lat="48.04378" lon="7.00999">
        <ele>1294</ele>
        <time>2018-02-14T14:08:16Z</time>
      </trkpt>
      <trkpt lat="48.04392" lon="7.01008">
        <ele>1294</ele>
        <time>2018-02-14T14:08:31Z</time>
      </trkpt>
      <trkpt lat="48.04397" lon="7.01008">
        <ele>1293</ele>
        <time>2018-02-14T14:08:37Z</time>
      </trkpt>
      <trkpt lat="48.04426" lon="7.01015">
        <ele>1289</ele>
        <time>2018-02-14T14:09:06Z</time>
      </trkpt>
      <trkpt lat="48.04439" lon="7.01018">
        <ele>1288</ele>
        <time>2018-02-14T14:09:21Z</time>
      </trkpt>
      <trkpt lat="48.04471" lon="7.01028">
        <ele>1282</ele>
        <time>2018-02-14T14:09:55Z</time>
      </trkpt>
      <trkpt lat="48.04502" lon="7.01038">
        <ele>1278</ele>
        <time>2018-02-14T14:10:27Z</time>
      </trkpt>
      <trkpt lat="48.04529" lon="7.01046">
        <ele>1278</ele>
        <time>2018-02-14T14:10:58Z</time>
      </trkpt>
      <trkpt lat="48.04557" lon="7.01056">
        <ele>1279</ele>
        <time>2018-02-14T14:11:28Z</time>
      </trkpt>
      <trkpt lat="48.04562" lon="7.01058">
        <ele>1278</ele>
        <time>2018-02-14T14:11:34Z</time>
      </trkpt>
      <trkpt lat="48.04566" lon="7.0106">
        <ele>1277</ele>
        <time>2018-02-14T14:11:39Z</time>
      </trkpt>
      <trkpt lat="48.04592" lon="7.01068">
        <ele>1278</ele>
        <time>2018-02-14T14:12:11Z</time>
      </trkpt>
      <trkpt lat="48.04609" lon="7.01079">
        <ele>1280</ele>
        <time>2018-02-14T14:12:31Z</time>
      </trkpt>
      <trkpt lat="48.04613" lon="7.01091">
        <ele>1281</ele>
        <time>2018-02-14T14:12:45Z</time>
      </trkpt>
      <trkpt lat="48.04615" lon="7.01097">
        <ele>1279</ele>
        <time>2018-02-14T14:12:52Z</time>
      </trkpt>
      <trkpt lat="48.04617" lon="7.01109">
        <ele>1279</ele>
        <time>2018-02-14T14:14:35Z</time>
      </trkpt>
      <trkpt lat="48.04618" lon="7.01115">
        <ele>1280</ele>
        <time>2018-02-14T14:16:48Z</time>
      </trkpt>
      <trkpt lat="48.0462" lon="7.01122">
        <ele>1281</ele>
        <time>2018-02-14T14:16:56Z</time>
      </trkpt>
      <trkpt lat="48.0462" lon="7.01128">
        <ele>1282</ele>
        <time>2018-02-14T14:17:01Z</time>
      </trkpt>
      <trkpt lat="48.04623" lon="7.01149">
        <ele>1285</ele>
        <time>2018-02-14T14:17:16Z</time>
      </trkpt>
      <trkpt lat="48.04625" lon="7.01171">
        <ele>1288</ele>
        <time>2018-02-14T14:17:32Z</time>
      </trkpt>
      <trkpt lat="48.04628" lon="7.01201">
        <ele>1286</ele>
        <time>2018-02-14T14:17:55Z</time>
      </trkpt>
      <trkpt lat="48.0463" lon="7.01208">
        <ele>1285</ele>
        <time>2018-02-14T14:18:00Z</time>
      </trkpt>
      <trkpt lat="48.04633" lon="7.01213">
        <ele>1284</ele>
        <time>2018-02-14T14:18:05Z</time>
      </trkpt>
      <trkpt lat="48.0464" lon="7.01223">
        <ele>1288</ele>
        <time>2018-02-14T14:18:11Z</time>
      </trkpt>
      <trkpt lat="48.04646" lon="7.01233">
        <ele>1291</ele>
        <time>2018-02-14T14:18:19Z</time>
      </trkpt>
      <trkpt lat="48.04649" lon="7.01237">
        <ele>1292</ele>
        <time>2018-02-14T14:18:23Z</time>
      </trkpt>
      <trkpt lat="48.04663" lon="7.01257">
        <ele>1287</ele>
        <time>2018-02-14T14:18:39Z</time>
      </trkpt>
      <trkpt lat="48.0467" lon="7.01266">
        <ele>1285</ele>
        <time>2018-02-14T14:18:47Z</time>
      </trkpt>
      <trkpt lat="48.04677" lon="7.01275">
        <ele>1285</ele>
        <time>2018-02-14T14:18:56Z</time>
      </trkpt>
      <trkpt lat="48.04694" lon="7.013">
        <ele>1284</ele>
        <time>2018-02-14T14:19:16Z</time>
      </trkpt>
      <trkpt lat="48.04698" lon="7.01305">
        <ele>1283</ele>
        <time>2018-02-14T14:19:20Z</time>
      </trkpt>
      <trkpt lat="48.04699" lon="7.01311">
        <ele>1281</ele>
        <time>2018-02-14T14:19:26Z</time>
      </trkpt>
      <trkpt lat="48.04703" lon="7.01317">
        <ele>1282</ele>
        <time>2018-02-14T14:19:30Z</time>
      </trkpt>
      <trkpt lat="48.04708" lon="7.01321">
        <ele>1282</ele>
        <time>2018-02-14T14:19:34Z</time>
      </trkpt>
      <trkpt lat="48.04719" lon="7.01337">
        <ele>1281</ele>
        <time>2018-02-14T14:19:49Z</time>
      </trkpt>
      <trkpt lat="48.04722" lon="7.01341">
        <ele>1281</ele>
        <time>2018-02-14T14:19:52Z</time>
      </trkpt>
      <trkpt lat="48.04748" lon="7.0138">
        <ele>1274</ele>
        <time>2018-02-14T14:20:24Z</time>
      </trkpt>
      <trkpt lat="48.04758" lon="7.01395">
        <ele>1273</ele>
        <time>2018-02-14T14:20:37Z</time>
      </trkpt>
      <trkpt lat="48.04759" lon="7.01401">
        <ele>1273</ele>
        <time>2018-02-14T14:20:43Z</time>
      </trkpt>
      <trkpt lat="48.04763" lon="7.01406">
        <ele>1272</ele>
        <time>2018-02-14T14:21:28Z</time>
      </trkpt>
      <trkpt lat="48.04767" lon="7.01406">
        <ele>1272</ele>
        <time>2018-02-14T14:21:33Z</time>
      </trkpt>
      <trkpt lat="48.04772" lon="7.01409">
        <ele>1271</ele>
        <time>2018-02-14T14:21:50Z</time>
      </trkpt>
      <trkpt lat="48.04783" lon="7.01408">
        <ele>1271</ele>
        <time>2018-02-14T14:22:44Z</time>
      </trkpt>
      <trkpt lat="48.04786" lon="7.01411">
        <ele>1270</ele>
        <time>2018-02-14T14:23:44Z</time>
      </trkpt>
      <trkpt lat="48.0479" lon="7.01415">
        <ele>1271</ele>
        <time>2018-02-14T14:23:54Z</time>
      </trkpt>
      <trkpt lat="48.04797" lon="7.01425">
        <ele>1274</ele>
        <time>2018-02-14T14:24:06Z</time>
      </trkpt>
      <trkpt lat="48.048" lon="7.01429">
        <ele>1272</ele>
        <time>2018-02-14T14:24:23Z</time>
      </trkpt>
      <trkpt lat="48.04805" lon="7.01432">
        <ele>1269</ele>
        <time>2018-02-14T14:24:28Z</time>
      </trkpt>
      <trkpt lat="48.0481" lon="7.01433">
        <ele>1268</ele>
        <time>2018-02-14T14:24:32Z</time>
      </trkpt>
      <trkpt lat="48.04816" lon="7.01441">
        <ele>1266</ele>
        <time>2018-02-14T14:24:41Z</time>
      </trkpt>
      <trkpt lat="48.04821" lon="7.01445">
        <ele>1266</ele>
        <time>2018-02-14T14:24:45Z</time>
      </trkpt>
      <trkpt lat="48.04824" lon="7.01449">
        <ele>1265</ele>
        <time>2018-02-14T14:24:50Z</time>
      </trkpt>
      <trkpt lat="48.04826" lon="7.01455">
        <ele>1264</ele>
        <time>2018-02-14T14:24:55Z</time>
      </trkpt>
      <trkpt lat="48.0483" lon="7.01459">
        <ele>1262</ele>
        <time>2018-02-14T14:25:01Z</time>
      </trkpt>
      <trkpt lat="48.04838" lon="7.01465">
        <ele>1262</ele>
        <time>2018-02-14T14:25:12Z</time>
      </trkpt>
      <trkpt lat="48.04834" lon="7.01465">
        <ele>1262</ele>
        <time>2018-02-14T14:25:24Z</time>
      </trkpt>
      <trkpt lat="48.0483" lon="7.01462">
        <ele>1262</ele>
        <time>2018-02-14T14:25:29Z</time>
      </trkpt>
      <trkpt lat="48.04822" lon="7.01455">
        <ele>1264</ele>
        <time>2018-02-14T14:25:42Z</time>
      </trkpt>
      <trkpt lat="48.04818" lon="7.01456">
        <ele>1264</ele>
        <time>2018-02-14T14:26:07Z</time>
      </trkpt>
      <trkpt lat="48.04814" lon="7.0146">
        <ele>1266</ele>
        <time>2018-02-14T14:27:06Z</time>
      </trkpt>
      <trkpt lat="48.04809" lon="7.01472">
        <ele>1267</ele>
        <time>2018-02-14T14:27:17Z</time>
      </trkpt>
      <trkpt lat="48.04809" lon="7.01478">
        <ele>1268</ele>
        <time>2018-02-14T14:27:21Z</time>
      </trkpt>
      <trkpt lat="48.04812" lon="7.01485">
        <ele>1270</ele>
        <time>2018-02-14T14:27:26Z</time>
      </trkpt>
      <trkpt lat="48.04813" lon="7.01498">
        <ele>1271</ele>
        <time>2018-02-14T14:27:36Z</time>
      </trkpt>
      <trkpt lat="48.0481" lon="7.01503">
        <ele>1271</ele>
        <time>2018-02-14T14:27:43Z</time>
      </trkpt>
      <trkpt lat="48.04806" lon="7.01505">
        <ele>1267</ele>
        <time>2018-02-14T14:27:50Z</time>
      </trkpt>
      <trkpt lat="48.04804" lon="7.01511">
        <ele>1267</ele>
        <time>2018-02-14T14:27:56Z</time>
      </trkpt>
      <trkpt lat="48.04801" lon="7.01517">
        <ele>1267</ele>
        <time>2018-02-14T14:28:01Z</time>
      </trkpt>
      <trkpt lat="48.04804" lon="7.01523">
        <ele>1268</ele>
        <time>2018-02-14T14:28:14Z</time>
      </trkpt>
      <trkpt lat="48.04809" lon="7.01526">
        <ele>1267</ele>
        <time>2018-02-14T14:28:20Z</time>
      </trkpt>
      <trkpt lat="48.04817" lon="7.01543">
        <ele>1265</ele>
        <time>2018-02-14T14:28:41Z</time>
      </trkpt>
      <trkpt lat="48.04825" lon="7.01548">
        <ele>1264</ele>
        <time>2018-02-14T14:28:51Z</time>
      </trkpt>
      <trkpt lat="48.04829" lon="7.01551">
        <ele>1261</ele>
        <time>2018-02-14T14:28:59Z</time>
      </trkpt>
      <trkpt lat="48.04834" lon="7.01552">
        <ele>1261</ele>
        <time>2018-02-14T14:29:04Z</time>
      </trkpt>
      <trkpt lat="48.04838" lon="7.01554">
        <ele>1260</ele>
        <time>2018-02-14T14:29:09Z</time>
      </trkpt>
      <trkpt lat="48.04842" lon="7.01552">
        <ele>1260</ele>
        <time>2018-02-14T14:29:17Z</time>
      </trkpt>
      <trkpt lat="48.04851" lon="7.01556">
        <ele>1259</ele>
        <time>2018-02-14T14:29:30Z</time>
      </trkpt>
      <trkpt lat="48.04856" lon="7.01554">
        <ele>1257</ele>
        <time>2018-02-14T14:29:35Z</time>
      </trkpt>
      <trkpt lat="48.04864" lon="7.01548">
        <ele>1254</ele>
        <time>2018-02-14T14:29:45Z</time>
      </trkpt>
      <trkpt lat="48.04868" lon="7.01545">
        <ele>1255</ele>
        <time>2018-02-14T14:29:51Z</time>
      </trkpt>
      <trkpt lat="48.04873" lon="7.01543">
        <ele>1254</ele>
        <time>2018-02-14T14:29:56Z</time>
      </trkpt>
      <trkpt lat="48.04881" lon="7.01541">
        <ele>1251</ele>
        <time>2018-02-14T14:30:05Z</time>
      </trkpt>
      <trkpt lat="48.04885" lon="7.01539">
        <ele>1252</ele>
        <time>2018-02-14T14:30:10Z</time>
      </trkpt>
      <trkpt lat="48.04892" lon="7.01549">
        <ele>1252</ele>
        <time>2018-02-14T14:30:20Z</time>
      </trkpt>
      <trkpt lat="48.04896" lon="7.01551">
        <ele>1253</ele>
        <time>2018-02-14T14:30:28Z</time>
      </trkpt>
      <trkpt lat="48.04905" lon="7.01561">
        <ele>1250</ele>
        <time>2018-02-14T14:30:44Z</time>
      </trkpt>
      <trkpt lat="48.0491" lon="7.01562">
        <ele>1250</ele>
        <time>2018-02-14T14:30:51Z</time>
      </trkpt>
      <trkpt lat="48.04915" lon="7.01564">
        <ele>1249</ele>
        <time>2018-02-14T14:30:57Z</time>
      </trkpt>
      <trkpt lat="48.04931" lon="7.01576">
        <ele>1245</ele>
        <time>2018-02-14T14:31:17Z</time>
      </trkpt>
      <trkpt lat="48.04936" lon="7.01579">
        <ele>1247</ele>
        <time>2018-02-14T14:31:23Z</time>
      </trkpt>
      <trkpt lat="48.04939" lon="7.01583">
        <ele>1246</ele>
        <time>2018-02-14T14:31:28Z</time>
      </trkpt>
      <trkpt lat="48.04946" lon="7.01592">
        <ele>1246</ele>
        <time>2018-02-14T14:31:40Z</time>
      </trkpt>
      <trkpt lat="48.04949" lon="7.01597">
        <ele>1248</ele>
        <time>2018-02-14T14:31:44Z</time>
      </trkpt>
      <trkpt lat="48.04961" lon="7.01607">
        <ele>1245</ele>
        <time>2018-02-14T14:31:58Z</time>
      </trkpt>
      <trkpt lat="48.04967" lon="7.01616">
        <ele>1247</ele>
        <time>2018-02-14T14:32:12Z</time>
      </trkpt>
      <trkpt lat="48.04981" lon="7.01618">
        <ele>1244</ele>
        <time>2018-02-14T14:32:24Z</time>
      </trkpt>
      <trkpt lat="48.04984" lon="7.01621">
        <ele>1243</ele>
        <time>2018-02-14T14:32:29Z</time>
      </trkpt>
      <trkpt lat="48.0499" lon="7.01625">
        <ele>1243</ele>
        <time>2018-02-14T14:32:38Z</time>
      </trkpt>
      <trkpt lat="48.04997" lon="7.01627">
        <ele>1244</ele>
        <time>2018-02-14T14:32:42Z</time>
      </trkpt>
      <trkpt lat="48.05014" lon="7.0164">
        <ele>1246</ele>
        <time>2018-02-14T14:32:59Z</time>
      </trkpt>
      <trkpt lat="48.05018" lon="7.01643">
        <ele>1244</ele>
        <time>2018-02-14T14:33:05Z</time>
      </trkpt>
      <trkpt lat="48.05022" lon="7.01646">
        <ele>1243</ele>
        <time>2018-02-14T14:33:09Z</time>
      </trkpt>
      <trkpt lat="48.05031" lon="7.01654">
        <ele>1246</ele>
        <time>2018-02-14T14:33:19Z</time>
      </trkpt>
      <trkpt lat="48.05048" lon="7.01669">
        <ele>1242</ele>
        <time>2018-02-14T14:33:37Z</time>
      </trkpt>
      <trkpt lat="48.05053" lon="7.01671">
        <ele>1240</ele>
        <time>2018-02-14T14:33:41Z</time>
      </trkpt>
      <trkpt lat="48.05065" lon="7.01692">
        <ele>1237</ele>
        <time>2018-02-14T14:33:59Z</time>
      </trkpt>
      <trkpt lat="48.05069" lon="7.01695">
        <ele>1238</ele>
        <time>2018-02-14T14:34:57Z</time>
      </trkpt>
      <trkpt lat="48.05071" lon="7.01701">
        <ele>1236</ele>
        <time>2018-02-14T14:36:25Z</time>
      </trkpt>
      <trkpt lat="48.05078" lon="7.01709">
        <ele>1238</ele>
        <time>2018-02-14T14:36:32Z</time>
      </trkpt>
      <trkpt lat="48.05081" lon="7.01715">
        <ele>1240</ele>
        <time>2018-02-14T14:36:36Z</time>
      </trkpt>
      <trkpt lat="48.05083" lon="7.01721">
        <ele>1240</ele>
        <time>2018-02-14T14:36:40Z</time>
      </trkpt>
      <trkpt lat="48.05091" lon="7.0174">
        <ele>1241</ele>
        <time>2018-02-14T14:36:54Z</time>
      </trkpt>
      <trkpt lat="48.05094" lon="7.01745">
        <ele>1242</ele>
        <time>2018-02-14T14:36:59Z</time>
      </trkpt>
      <trkpt lat="48.05096" lon="7.01751">
        <ele>1239</ele>
        <time>2018-02-14T14:37:04Z</time>
      </trkpt>
      <trkpt lat="48.05105" lon="7.01767">
        <ele>1235</ele>
        <time>2018-02-14T14:37:17Z</time>
      </trkpt>
      <trkpt lat="48.05112" lon="7.01785">
        <ele>1231</ele>
        <time>2018-02-14T14:37:29Z</time>
      </trkpt>
      <trkpt lat="48.05116" lon="7.01788">
        <ele>1230</ele>
        <time>2018-02-14T14:37:35Z</time>
      </trkpt>
      <trkpt lat="48.0512" lon="7.01786">
        <ele>1228</ele>
        <time>2018-02-14T14:37:38Z</time>
      </trkpt>
      <trkpt lat="48.05128" lon="7.01791">
        <ele>1230</ele>
        <time>2018-02-14T14:37:44Z</time>
      </trkpt>
      <trkpt lat="48.05132" lon="7.01797">
        <ele>1231</ele>
        <time>2018-02-14T14:37:50Z</time>
      </trkpt>
      <trkpt lat="48.05135" lon="7.01804">
        <ele>1231</ele>
        <time>2018-02-14T14:37:55Z</time>
      </trkpt>
      <trkpt lat="48.05154" lon="7.01841">
        <ele>1226</ele>
        <time>2018-02-14T14:38:25Z</time>
      </trkpt>
      <trkpt lat="48.05156" lon="7.01846">
        <ele>1226</ele>
        <time>2018-02-14T14:38:29Z</time>
      </trkpt>
      <trkpt lat="48.05158" lon="7.0186">
        <ele>1225</ele>
        <time>2018-02-14T14:38:39Z</time>
      </trkpt>
      <trkpt lat="48.05162" lon="7.01866">
        <ele>1226</ele>
        <time>2018-02-14T14:38:43Z</time>
      </trkpt>
      <trkpt lat="48.05163" lon="7.01872">
        <ele>1226</ele>
        <time>2018-02-14T14:38:50Z</time>
      </trkpt>
      <trkpt lat="48.05168" lon="7.01883">
        <ele>1227</ele>
        <time>2018-02-14T14:38:59Z</time>
      </trkpt>
      <trkpt lat="48.05171" lon="7.01889">
        <ele>1226</ele>
        <time>2018-02-14T14:39:04Z</time>
      </trkpt>
      <trkpt lat="48.05172" lon="7.01896">
        <ele>1227</ele>
        <time>2018-02-14T14:39:08Z</time>
      </trkpt>
      <trkpt lat="48.0517" lon="7.01902">
        <ele>1226</ele>
        <time>2018-02-14T14:39:12Z</time>
      </trkpt>
      <trkpt lat="48.05171" lon="7.01909">
        <ele>1223</ele>
        <time>2018-02-14T14:39:17Z</time>
      </trkpt>
      <trkpt lat="48.05175" lon="7.01928">
        <ele>1221</ele>
        <time>2018-02-14T14:39:27Z</time>
      </trkpt>
      <trkpt lat="48.05177" lon="7.01934">
        <ele>1223</ele>
        <time>2018-02-14T14:39:32Z</time>
      </trkpt>
      <trkpt lat="48.05179" lon="7.0194">
        <ele>1224</ele>
        <time>2018-02-14T14:39:37Z</time>
      </trkpt>
      <trkpt lat="48.05181" lon="7.01945">
        <ele>1225</ele>
        <time>2018-02-14T14:39:41Z</time>
      </trkpt>
      <trkpt lat="48.05186" lon="7.01958">
        <ele>1226</ele>
        <time>2018-02-14T14:39:49Z</time>
      </trkpt>
      <trkpt lat="48.05193" lon="7.01969">
        <ele>1227</ele>
        <time>2018-02-14T14:39:58Z</time>
      </trkpt>
      <trkpt lat="48.05197" lon="7.01972">
        <ele>1228</ele>
        <time>2018-02-14T14:40:04Z</time>
      </trkpt>
      <trkpt lat="48.05201" lon="7.01975">
        <ele>1231</ele>
        <time>2018-02-14T14:40:06Z</time>
      </trkpt>
      <trkpt lat="48.05203" lon="7.01981">
        <ele>1231</ele>
        <time>2018-02-14T14:40:11Z</time>
      </trkpt>
      <trkpt lat="48.05208" lon="7.01983">
        <ele>1230</ele>
        <time>2018-02-14T14:40:17Z</time>
      </trkpt>
      <trkpt lat="48.0521" lon="7.0199">
        <ele>1229</ele>
        <time>2018-02-14T14:40:24Z</time>
      </trkpt>
      <trkpt lat="48.05214" lon="7.01995">
        <ele>1229</ele>
        <time>2018-02-14T14:40:28Z</time>
      </trkpt>
      <trkpt lat="48.05217" lon="7.01999">
        <ele>1230</ele>
        <time>2018-02-14T14:40:31Z</time>
      </trkpt>
      <trkpt lat="48.05222" lon="7.0201">
        <ele>1232</ele>
        <time>2018-02-14T14:40:39Z</time>
      </trkpt>
      <trkpt lat="48.05226" lon="7.02014">
        <ele>1233</ele>
        <time>2018-02-14T14:40:43Z</time>
      </trkpt>
      <trkpt lat="48.05228" lon="7.02019">
        <ele>1232</ele>
        <time>2018-02-14T14:40:50Z</time>
      </trkpt>
      <trkpt lat="48.05232" lon="7.02022">
        <ele>1231</ele>
        <time>2018-02-14T14:40:53Z</time>
      </trkpt>
      <trkpt lat="48.05241" lon="7.02026">
        <ele>1232</ele>
        <time>2018-02-14T14:41:02Z</time>
      </trkpt>
      <trkpt lat="48.05244" lon="7.02031">
        <ele>1234</ele>
        <time>2018-02-14T14:41:07Z</time>
      </trkpt>
      <trkpt lat="48.05261" lon="7.02046">
        <ele>1232</ele>
        <time>2018-02-14T14:41:24Z</time>
      </trkpt>
      <trkpt lat="48.05267" lon="7.02056">
        <ele>1231</ele>
        <time>2018-02-14T14:41:31Z</time>
      </trkpt>
      <trkpt lat="48.05276" lon="7.02072">
        <ele>1232</ele>
        <time>2018-02-14T14:41:42Z</time>
      </trkpt>
      <trkpt lat="48.05285" lon="7.02079">
        <ele>1232</ele>
        <time>2018-02-14T14:41:53Z</time>
      </trkpt>
      <trkpt lat="48.05296" lon="7.02091">
        <ele>1232</ele>
        <time>2018-02-14T14:42:08Z</time>
      </trkpt>
      <trkpt lat="48.05303" lon="7.021">
        <ele>1232</ele>
        <time>2018-02-14T14:42:17Z</time>
      </trkpt>
      <trkpt lat="48.05306" lon="7.02105">
        <ele>1231</ele>
        <time>2018-02-14T14:42:22Z</time>
      </trkpt>
      <trkpt lat="48.05311" lon="7.02109">
        <ele>1231</ele>
        <time>2018-02-14T14:42:27Z</time>
      </trkpt>
      <trkpt lat="48.05315" lon="7.02114">
        <ele>1233</ele>
        <time>2018-02-14T14:42:33Z</time>
      </trkpt>
      <trkpt lat="48.0533" lon="7.0213">
        <ele>1232</ele>
        <time>2018-02-14T14:42:51Z</time>
      </trkpt>
      <trkpt lat="48.05337" lon="7.0214">
        <ele>1230</ele>
        <time>2018-02-14T14:42:59Z</time>
      </trkpt>
      <trkpt lat="48.05344" lon="7.02148">
        <ele>1231</ele>
        <time>2018-02-14T14:43:07Z</time>
      </trkpt>
      <trkpt lat="48.05348" lon="7.02153">
        <ele>1231</ele>
        <time>2018-02-14T14:43:12Z</time>
      </trkpt>
      <trkpt lat="48.05355" lon="7.02163">
        <ele>1233</ele>
        <time>2018-02-14T14:43:21Z</time>
      </trkpt>
      <trkpt lat="48.05359" lon="7.02166">
        <ele>1233</ele>
        <time>2018-02-14T14:43:44Z</time>
      </trkpt>
      <trkpt lat="48.05363" lon="7.0217">
        <ele>1232</ele>
        <time>2018-02-14T14:44:44Z</time>
      </trkpt>
      <trkpt lat="48.05366" lon="7.02175">
        <ele>1232</ele>
        <time>2018-02-14T14:44:51Z</time>
      </trkpt>
      <trkpt lat="48.0538" lon="7.02186">
        <ele>1235</ele>
        <time>2018-02-14T14:45:03Z</time>
      </trkpt>
      <trkpt lat="48.05384" lon="7.0219">
        <ele>1235</ele>
        <time>2018-02-14T14:45:08Z</time>
      </trkpt>
      <trkpt lat="48.05402" lon="7.02203">
        <ele>1236</ele>
        <time>2018-02-14T14:45:26Z</time>
      </trkpt>
      <trkpt lat="48.05406" lon="7.02208">
        <ele>1236</ele>
        <time>2018-02-14T14:45:30Z</time>
      </trkpt>
      <trkpt lat="48.05414" lon="7.02215">
        <ele>1234</ele>
        <time>2018-02-14T14:45:38Z</time>
      </trkpt>
      <trkpt lat="48.05424" lon="7.02229">
        <ele>1236</ele>
        <time>2018-02-14T14:45:51Z</time>
      </trkpt>
      <trkpt lat="48.05448" lon="7.02257">
        <ele>1235</ele>
        <time>2018-02-14T14:46:19Z</time>
      </trkpt>
      <trkpt lat="48.05452" lon="7.02261">
        <ele>1235</ele>
        <time>2018-02-14T14:46:25Z</time>
      </trkpt>
      <trkpt lat="48.05457" lon="7.02263">
        <ele>1232</ele>
        <time>2018-02-14T14:46:29Z</time>
      </trkpt>
      <trkpt lat="48.05465" lon="7.02287">
        <ele>1232</ele>
        <time>2018-02-14T14:46:47Z</time>
      </trkpt>
      <trkpt lat="48.05477" lon="7.02304">
        <ele>1233</ele>
        <time>2018-02-14T14:47:04Z</time>
      </trkpt>
      <trkpt lat="48.0548" lon="7.0231">
        <ele>1233</ele>
        <time>2018-02-14T14:47:09Z</time>
      </trkpt>
      <trkpt lat="48.05481" lon="7.02317">
        <ele>1233</ele>
        <time>2018-02-14T14:47:14Z</time>
      </trkpt>
      <trkpt lat="48.05483" lon="7.02323">
        <ele>1234</ele>
        <time>2018-02-14T14:47:21Z</time>
      </trkpt>
      <trkpt lat="48.0549" lon="7.02332">
        <ele>1236</ele>
        <time>2018-02-14T14:47:31Z</time>
      </trkpt>
      <trkpt lat="48.05494" lon="7.02335">
        <ele>1236</ele>
        <time>2018-02-14T14:47:37Z</time>
      </trkpt>
      <trkpt lat="48.055" lon="7.02336">
        <ele>1236</ele>
        <time>2018-02-14T14:47:44Z</time>
      </trkpt>
      <trkpt lat="48.05505" lon="7.02336">
        <ele>1234</ele>
        <time>2018-02-14T14:47:49Z</time>
      </trkpt>
      <trkpt lat="48.05509" lon="7.02333">
        <ele>1234</ele>
        <time>2018-02-14T14:47:54Z</time>
      </trkpt>
      <trkpt lat="48.05513" lon="7.02332">
        <ele>1234</ele>
        <time>2018-02-14T14:47:58Z</time>
      </trkpt>
      <trkpt lat="48.05517" lon="7.02328">
        <ele>1236</ele>
        <time>2018-02-14T14:48:05Z</time>
      </trkpt>
      <trkpt lat="48.05522" lon="7.02325">
        <ele>1236</ele>
        <time>2018-02-14T14:48:09Z</time>
      </trkpt>
      <trkpt lat="48.05527" lon="7.02322">
        <ele>1236</ele>
        <time>2018-02-14T14:48:16Z</time>
      </trkpt>
      <trkpt lat="48.05532" lon="7.02325">
        <ele>1235</ele>
        <time>2018-02-14T14:48:22Z</time>
      </trkpt>
      <trkpt lat="48.05539" lon="7.02324">
        <ele>1234</ele>
        <time>2018-02-14T14:48:28Z</time>
      </trkpt>
      <trkpt lat="48.05544" lon="7.02322">
        <ele>1236</ele>
        <time>2018-02-14T14:48:34Z</time>
      </trkpt>
      <trkpt lat="48.05552" lon="7.0233">
        <ele>1235</ele>
        <time>2018-02-14T14:48:46Z</time>
      </trkpt>
      <trkpt lat="48.05557" lon="7.02333">
        <ele>1236</ele>
        <time>2018-02-14T14:48:53Z</time>
      </trkpt>
      <trkpt lat="48.05559" lon="7.02339">
        <ele>1236</ele>
        <time>2018-02-14T14:48:58Z</time>
      </trkpt>
      <trkpt lat="48.05563" lon="7.02343">
        <ele>1238</ele>
        <time>2018-02-14T14:49:02Z</time>
      </trkpt>
      <trkpt lat="48.05565" lon="7.0235">
        <ele>1239</ele>
        <time>2018-02-14T14:49:07Z</time>
      </trkpt>
      <trkpt lat="48.05569" lon="7.02353">
        <ele>1240</ele>
        <time>2018-02-14T14:49:10Z</time>
      </trkpt>
      <trkpt lat="48.05572" lon="7.02359">
        <ele>1240</ele>
        <time>2018-02-14T14:49:15Z</time>
      </trkpt>
      <trkpt lat="48.05576" lon="7.0236">
        <ele>1240</ele>
        <time>2018-02-14T14:49:18Z</time>
      </trkpt>
      <trkpt lat="48.05579" lon="7.02366">
        <ele>1240</ele>
        <time>2018-02-14T14:49:22Z</time>
      </trkpt>
      <trkpt lat="48.05589" lon="7.02379">
        <ele>1241</ele>
        <time>2018-02-14T14:49:37Z</time>
      </trkpt>
      <trkpt lat="48.05593" lon="7.02383">
        <ele>1241</ele>
        <time>2018-02-14T14:49:41Z</time>
      </trkpt>
      <trkpt lat="48.05596" lon="7.02387">
        <ele>1240</ele>
        <time>2018-02-14T14:49:46Z</time>
      </trkpt>
      <trkpt lat="48.05603" lon="7.02395">
        <ele>1239</ele>
        <time>2018-02-14T14:49:53Z</time>
      </trkpt>
      <trkpt lat="48.05606" lon="7.02399">
        <ele>1241</ele>
        <time>2018-02-14T14:50:00Z</time>
      </trkpt>
      <trkpt lat="48.05623" lon="7.02411">
        <ele>1244</ele>
        <time>2018-02-14T14:50:18Z</time>
      </trkpt>
      <trkpt lat="48.05626" lon="7.02418">
        <ele>1241</ele>
        <time>2018-02-14T14:50:22Z</time>
      </trkpt>
      <trkpt lat="48.05637" lon="7.02423">
        <ele>1238</ele>
        <time>2018-02-14T14:50:36Z</time>
      </trkpt>
      <trkpt lat="48.05643" lon="7.02425">
        <ele>1236</ele>
        <time>2018-02-14T14:50:41Z</time>
      </trkpt>
      <trkpt lat="48.05655" lon="7.02429">
        <ele>1235</ele>
        <time>2018-02-14T14:50:52Z</time>
      </trkpt>
      <trkpt lat="48.05664" lon="7.0242">
        <ele>1236</ele>
        <time>2018-02-14T14:51:00Z</time>
      </trkpt>
      <trkpt lat="48.0567" lon="7.02417">
        <ele>1236</ele>
        <time>2018-02-14T14:51:06Z</time>
      </trkpt>
      <trkpt lat="48.05675" lon="7.02411">
        <ele>1235</ele>
        <time>2018-02-14T14:51:12Z</time>
      </trkpt>
      <trkpt lat="48.05683" lon="7.02403">
        <ele>1234</ele>
        <time>2018-02-14T14:51:22Z</time>
      </trkpt>
      <trkpt lat="48.05689" lon="7.024">
        <ele>1233</ele>
        <time>2018-02-14T14:51:28Z</time>
      </trkpt>
      <trkpt lat="48.05696" lon="7.02389">
        <ele>1231</ele>
        <time>2018-02-14T14:51:42Z</time>
      </trkpt>
      <trkpt lat="48.05699" lon="7.02382">
        <ele>1230</ele>
        <time>2018-02-14T14:51:49Z</time>
      </trkpt>
      <trkpt lat="48.05714" lon="7.02364">
        <ele>1231</ele>
        <time>2018-02-14T14:52:08Z</time>
      </trkpt>
      <trkpt lat="48.05717" lon="7.02359">
        <ele>1232</ele>
        <time>2018-02-14T14:52:13Z</time>
      </trkpt>
      <trkpt lat="48.05729" lon="7.02348">
        <ele>1236</ele>
        <time>2018-02-14T14:52:26Z</time>
      </trkpt>
      <trkpt lat="48.05732" lon="7.02343">
        <ele>1236</ele>
        <time>2018-02-14T14:52:32Z</time>
      </trkpt>
      <trkpt lat="48.05737" lon="7.02338">
        <ele>1235</ele>
        <time>2018-02-14T14:52:38Z</time>
      </trkpt>
      <trkpt lat="48.0574" lon="7.02334">
        <ele>1234</ele>
        <time>2018-02-14T14:52:41Z</time>
      </trkpt>
      <trkpt lat="48.05745" lon="7.02334">
        <ele>1232</ele>
        <time>2018-02-14T14:52:46Z</time>
      </trkpt>
      <trkpt lat="48.05752" lon="7.0233">
        <ele>1230</ele>
        <time>2018-02-14T14:52:52Z</time>
      </trkpt>
      <trkpt lat="48.05757" lon="7.02328">
        <ele>1230</ele>
        <time>2018-02-14T14:52:57Z</time>
      </trkpt>
      <trkpt lat="48.05762" lon="7.02328">
        <ele>1227</ele>
        <time>2018-02-14T14:53:01Z</time>
      </trkpt>
      <trkpt lat="48.05767" lon="7.02327">
        <ele>1225</ele>
        <time>2018-02-14T14:53:07Z</time>
      </trkpt>
      <trkpt lat="48.05776" lon="7.02323">
        <ele>1222</ele>
        <time>2018-02-14T14:53:15Z</time>
      </trkpt>
      <trkpt lat="48.05781" lon="7.0232">
        <ele>1221</ele>
        <time>2018-02-14T14:53:21Z</time>
      </trkpt>
      <trkpt lat="48.05792" lon="7.02307">
        <ele>1218</ele>
        <time>2018-02-14T14:53:35Z</time>
      </trkpt>
      <trkpt lat="48.05799" lon="7.02305">
        <ele>1213</ele>
        <time>2018-02-14T14:53:44Z</time>
      </trkpt>
      <trkpt lat="48.0581" lon="7.02298">
        <ele>1210</ele>
        <time>2018-02-14T14:53:55Z</time>
      </trkpt>
      <trkpt lat="48.05815" lon="7.02301">
        <ele>1213</ele>
        <time>2018-02-14T14:53:59Z</time>
      </trkpt>
      <trkpt lat="48.05827" lon="7.023">
        <ele>1212</ele>
        <time>2018-02-14T14:54:10Z</time>
      </trkpt>
      <trkpt lat="48.05859" lon="7.02306">
        <ele>1206</ele>
        <time>2018-02-14T14:54:40Z</time>
      </trkpt>
      <trkpt lat="48.05864" lon="7.02306">
        <ele>1205</ele>
        <time>2018-02-14T14:54:45Z</time>
      </trkpt>
      <trkpt lat="48.0587" lon="7.02312">
        <ele>1204</ele>
        <time>2018-02-14T14:54:52Z</time>
      </trkpt>
      <trkpt lat="48.05876" lon="7.02315">
        <ele>1203</ele>
        <time>2018-02-14T14:54:55Z</time>
      </trkpt>
      <trkpt lat="48.05881" lon="7.0232">
        <ele>1203</ele>
        <time>2018-02-14T14:55:01Z</time>
      </trkpt>
      <trkpt lat="48.05889" lon="7.02327">
        <ele>1204</ele>
        <time>2018-02-14T14:55:09Z</time>
      </trkpt>
      <trkpt lat="48.05893" lon="7.02327">
        <ele>1204</ele>
        <time>2018-02-14T14:55:12Z</time>
      </trkpt>
      <trkpt lat="48.05897" lon="7.02329">
        <ele>1204</ele>
        <time>2018-02-14T14:55:17Z</time>
      </trkpt>
      <trkpt lat="48.05902" lon="7.0233">
        <ele>1204</ele>
        <time>2018-02-14T14:55:20Z</time>
      </trkpt>
      <trkpt lat="48.05905" lon="7.02335">
        <ele>1205</ele>
        <time>2018-02-14T14:55:25Z</time>
      </trkpt>
      <trkpt lat="48.05938" lon="7.02353">
        <ele>1204</ele>
        <time>2018-02-14T14:55:57Z</time>
      </trkpt>
      <trkpt lat="48.05951" lon="7.02361">
        <ele>1204</ele>
        <time>2018-02-14T14:56:10Z</time>
      </trkpt>
      <trkpt lat="48.0596" lon="7.02364">
        <ele>1201</ele>
        <time>2018-02-14T14:56:18Z</time>
      </trkpt>
      <trkpt lat="48.05971" lon="7.02369">
        <ele>1197</ele>
        <time>2018-02-14T14:56:30Z</time>
      </trkpt>
      <trkpt lat="48.05976" lon="7.0237">
        <ele>1195</ele>
        <time>2018-02-14T14:56:33Z</time>
      </trkpt>
      <trkpt lat="48.0601" lon="7.02385">
        <ele>1195</ele>
        <time>2018-02-14T14:57:03Z</time>
      </trkpt>
      <trkpt lat="48.06021" lon="7.0239">
        <ele>1194</ele>
        <time>2018-02-14T14:57:15Z</time>
      </trkpt>
      <trkpt lat="48.06027" lon="7.02392">
        <ele>1195</ele>
        <time>2018-02-14T14:57:22Z</time>
      </trkpt>
      <trkpt lat="48.06032" lon="7.02389">
        <ele>1197</ele>
        <time>2018-02-14T14:58:08Z</time>
      </trkpt>
      <trkpt lat="48.0604" lon="7.02396">
        <ele>1195</ele>
        <time>2018-02-14T14:58:17Z</time>
      </trkpt>
      <trkpt lat="48.06044" lon="7.02401">
        <ele>1193</ele>
        <time>2018-02-14T14:58:23Z</time>
      </trkpt>
      <trkpt lat="48.06049" lon="7.02403">
        <ele>1193</ele>
        <time>2018-02-14T14:58:27Z</time>
      </trkpt>
      <trkpt lat="48.06053" lon="7.02405">
        <ele>1190</ele>
        <time>2018-02-14T14:58:31Z</time>
      </trkpt>
      <trkpt lat="48.06058" lon="7.02409">
        <ele>1191</ele>
        <time>2018-02-14T14:58:38Z</time>
      </trkpt>
      <trkpt lat="48.06064" lon="7.02409">
        <ele>1192</ele>
        <time>2018-02-14T14:58:43Z</time>
      </trkpt>
      <trkpt lat="48.06068" lon="7.0241">
        <ele>1193</ele>
        <time>2018-02-14T14:59:39Z</time>
      </trkpt>
      <trkpt lat="48.06073" lon="7.0241">
        <ele>1193</ele>
        <time>2018-02-14T14:59:57Z</time>
      </trkpt>
      <trkpt lat="48.06077" lon="7.02409">
        <ele>1193</ele>
        <time>2018-02-14T15:00:01Z</time>
      </trkpt>
      <trkpt lat="48.06082" lon="7.02408">
        <ele>1193</ele>
        <time>2018-02-14T15:00:05Z</time>
      </trkpt>
      <trkpt lat="48.06103" lon="7.02422">
        <ele>1190</ele>
        <time>2018-02-14T15:00:35Z</time>
      </trkpt>
      <trkpt lat="48.06107" lon="7.02425">
        <ele>1189</ele>
        <time>2018-02-14T15:00:43Z</time>
      </trkpt>
      <trkpt lat="48.06111" lon="7.02424">
        <ele>1188</ele>
        <time>2018-02-14T15:00:48Z</time>
      </trkpt>
      <trkpt lat="48.06119" lon="7.02418">
        <ele>1187</ele>
        <time>2018-02-14T15:01:02Z</time>
      </trkpt>
      <trkpt lat="48.06135" lon="7.02394">
        <ele>1195</ele>
        <time>2018-02-14T15:01:36Z</time>
      </trkpt>
      <trkpt lat="48.0614" lon="7.02394">
        <ele>1195</ele>
        <time>2018-02-14T15:01:38Z</time>
      </trkpt>
      <trkpt lat="48.06149" lon="7.02393">
        <ele>1187</ele>
        <time>2018-02-14T15:01:51Z</time>
      </trkpt>
      <trkpt lat="48.06154" lon="7.02394">
        <ele>1184</ele>
        <time>2018-02-14T15:01:55Z</time>
      </trkpt>
      <trkpt lat="48.06159" lon="7.02396">
        <ele>1183</ele>
        <time>2018-02-14T15:02:04Z</time>
      </trkpt>
      <trkpt lat="48.06168" lon="7.02391">
        <ele>1175</ele>
        <time>2018-02-14T15:02:16Z</time>
      </trkpt>
      <trkpt lat="48.06174" lon="7.02385">
        <ele>1174</ele>
        <time>2018-02-14T15:02:22Z</time>
      </trkpt>
      <trkpt lat="48.06178" lon="7.02384">
        <ele>1172</ele>
        <time>2018-02-14T15:02:25Z</time>
      </trkpt>
      <trkpt lat="48.06187" lon="7.02379">
        <ele>1170</ele>
        <time>2018-02-14T15:02:31Z</time>
      </trkpt>
      <trkpt lat="48.06196" lon="7.02375">
        <ele>1169</ele>
        <time>2018-02-14T15:02:39Z</time>
      </trkpt>
      <trkpt lat="48.06207" lon="7.0237">
        <ele>1167</ele>
        <time>2018-02-14T15:02:47Z</time>
      </trkpt>
      <trkpt lat="48.06212" lon="7.02367">
        <ele>1168</ele>
        <time>2018-02-14T15:02:53Z</time>
      </trkpt>
      <trkpt lat="48.06224" lon="7.02367">
        <ele>1167</ele>
        <time>2018-02-14T15:03:02Z</time>
      </trkpt>
      <trkpt lat="48.06241" lon="7.02354">
        <ele>1162</ele>
        <time>2018-02-14T15:03:16Z</time>
      </trkpt>
      <trkpt lat="48.06247" lon="7.02351">
        <ele>1162</ele>
        <time>2018-02-14T15:03:20Z</time>
      </trkpt>
      <trkpt lat="48.06252" lon="7.0235">
        <ele>1162</ele>
        <time>2018-02-14T15:03:23Z</time>
      </trkpt>
      <trkpt lat="48.06267" lon="7.0234">
        <ele>1165</ele>
        <time>2018-02-14T15:03:35Z</time>
      </trkpt>
      <trkpt lat="48.06272" lon="7.02342">
        <ele>1164</ele>
        <time>2018-02-14T15:03:40Z</time>
      </trkpt>
      <trkpt lat="48.06288" lon="7.0233">
        <ele>1160</ele>
        <time>2018-02-14T15:03:53Z</time>
      </trkpt>
      <trkpt lat="48.06296" lon="7.02327">
        <ele>1159</ele>
        <time>2018-02-14T15:04:00Z</time>
      </trkpt>
      <trkpt lat="48.06301" lon="7.02324">
        <ele>1158</ele>
        <time>2018-02-14T15:04:03Z</time>
      </trkpt>
      <trkpt lat="48.0632" lon="7.02305">
        <ele>1150</ele>
        <time>2018-02-14T15:04:31Z</time>
      </trkpt>
      <trkpt lat="48.06328" lon="7.02296">
        <ele>1149</ele>
        <time>2018-02-14T15:04:40Z</time>
      </trkpt>
      <trkpt lat="48.06331" lon="7.02275">
        <ele>1146</ele>
        <time>2018-02-14T15:04:51Z</time>
      </trkpt>
      <trkpt lat="48.06336" lon="7.02272">
        <ele>1144</ele>
        <time>2018-02-14T15:04:55Z</time>
      </trkpt>
      <trkpt lat="48.06337" lon="7.02265">
        <ele>1141</ele>
        <time>2018-02-14T15:04:59Z</time>
      </trkpt>
      <trkpt lat="48.06338" lon="7.02252">
        <ele>1140</ele>
        <time>2018-02-14T15:05:05Z</time>
      </trkpt>
      <trkpt lat="48.0634" lon="7.02246">
        <ele>1138</ele>
        <time>2018-02-14T15:05:10Z</time>
      </trkpt>
      <trkpt lat="48.06341" lon="7.0224">
        <ele>1137</ele>
        <time>2018-02-14T15:05:13Z</time>
      </trkpt>
      <trkpt lat="48.06345" lon="7.02239">
        <ele>1137</ele>
        <time>2018-02-14T15:05:16Z</time>
      </trkpt>
      <trkpt lat="48.06362" lon="7.02252">
        <ele>1135</ele>
        <time>2018-02-14T15:05:33Z</time>
      </trkpt>
    </trkseg>
  </trk>
</gpx>